Flight Track Log - Related Links

Times and Time Zones

All times are in EDT time to prevent confusion due to time zone crossing. See the DAL268 flight status page for this flight to view local times or setup timezone preferences in your user account.

Time Position Orientation Groundspeed Altitude Reporting Facility
EDT Latitude Longitude Course Direction KTS MPH feet Rate Location/Type
Wed 09:36:11 PM 40.6330 -73.7780 14° North 125 144  Level FlightAware ADS-B
Wed 09:36:30 PM 40.6450 -73.7680 32° Northeast 172 198 1,000 Level FlightAware ADS-B
Wed 09:36:59 PM 40.6640 -73.7520 33° Northeast 168 193 800 1,500 Climbing FlightAware ADS-B
Wed 09:37:06 PM 40.6680 -73.7460 49° Northeast 172 198 900 1,200 Climbing FlightAware ADS-B
Wed 09:37:14 PM 40.6700 -73.7370 74° East 178 205 1,100 1,364 Climbing FlightAware ADS-B
Wed 09:37:28 PM 40.6710 -73.7220 85° East 189 217 1,400 1,161 Climbing FlightAware ADS-B
Wed 09:37:45 PM 40.6710 -73.7020 90° East 207 238 1,700 909 Climbing FlightAware ADS-B
Wed 09:38:01 PM 40.6710 -73.6810 90° East 220 253 1,900 913 Climbing FlightAware ADS-B
Wed 09:38:31 PM 40.6780 -73.6410 77° East 241 277 2,400 947 Climbing FlightAware ADS-B
Wed 09:38:39 PM 40.6830 -73.6310 57° Northeast 251 289 2,500 1,200 Climbing FlightAware ADS-B
Wed 09:38:51 PM 40.6940 -73.6170 44° Northeast 257 296 2,800 1,714 Climbing FlightAware ADS-B
Wed 09:39:07 PM 40.7070 -73.6010 43° Northeast 265 305 3,300 1,875 Climbing FlightAware ADS-B
Wed 09:39:23 PM 40.7220 -73.5820 44° Northeast 272 313 3,800 1,800 Climbing FlightAware ADS-B
Wed 09:39:47 PM 40.7460 -73.5530 42° Northeast 281 323 4,500 1,773 Climbing FlightAware ADS-B
Wed 09:40:07 PM 40.7660 -73.5290 42° Northeast 291 335 5,100 1,920 Climbing FlightAware ADS-B
Wed 09:40:37 PM 40.7940 -73.4940 43° Northeast 296 341 6,100 2,040 Climbing FlightAware ADS-B
Wed 09:40:57 PM 40.8150 -73.4690 42° Northeast 301 346 6,800 2,250 Climbing FlightAware ADS-B
Wed 09:41:17 PM 40.8360 -73.4430 43° Northeast 300 345 7,600 2,276 Climbing FlightAware ADS-B
Wed 09:41:26 PM 40.8456 -73.4308 44° Northeast 302 348 7,900 1,902 Climbing FlightAware ADS-B (KSNC)
Wed 09:41:58 PM 40.8853 -73.4020 29° Northeast 319 367 8,900 2,038 Climbing FlightAware ADS-B (KSNC)
Wed 09:42:19 PM 40.9066 -73.3919 20° North 316 364 9,700 1,731 Climbing FlightAware ADS-B (KSNC)
Wed 09:42:50 PM 40.9557 -73.3626 24° Northeast 327 376 10,400 1,200 Climbing FlightAware ADS-B (KSNC)
Wed 09:43:29 PM 41.0130 -73.3293 24° Northeast 356 410 11,100 1,130 Climbing FlightAware ADS-B (KSNC)
Wed 09:43:59 PM 41.0615 -73.3060 20° North 375 432 11,700 1,082 Climbing FlightAware ADS-B (KSNC)
Wed 09:44:30 PM 41.1134 -73.2793 21° North 396 456 12,200 1,108 Climbing FlightAware ADS-B (KSNC)
Wed 09:45:04 PM 41.1619 -73.2536 22° Northeast 416 479 12,900 1,472 Climbing FlightAware ADS-B (KSNC)
Wed 09:45:23 PM 41.2051 -73.2245 27° Northeast 416 479 13,500 2,057 Climbing FlightAware ADS-B (KSNC)
Wed 09:45:39 PM 41.2290 -73.1993 38° Northeast 417 480 14,100 1,920 Climbing FlightAware ADS-B (KSNC)
Wed 09:46:13 PM 41.2730 -73.1341 48° Northeast 423 487 15,100 1,726 Climbing FlightAware ADS-B (KSNC)
Wed 09:46:52 PM 41.3228 -73.0557 50° Northeast 433 498 16,200 1,667 Climbing FlightAware ADS-B (KSNC)
Wed 09:47:25 PM 41.3656 -72.9875 50° Northeast 441 507 17,100 1,690 Climbing FlightAware ADS-B (KSNC)
Wed 09:48:03 PM 41.4147 -72.9100 50° Northeast 447 514 18,200 1,590 Climbing FlightAware ADS-B (KSNC)
Wed 09:48:48 PM 41.4756 -72.8131 50° Northeast 460 529 19,300 1,421 Climbing FlightAware ADS-B (KSNC)
Wed 09:49:19 PM 41.5192 -72.7429 50° Northeast 469 540 20,000 1,377 Climbing FlightAware ADS-B (KSNC)
Wed 09:49:49 PM 41.5612 -72.6760 50° Northeast 473 544 20,700 1,478 Climbing FlightAware ADS-B (KSNC)
Wed 09:50:28 PM 41.6162 -72.5878 50° Northeast 478 550 21,700 1,371 Climbing FlightAware ADS-B (KSNC)
Wed 09:50:59 PM 41.6552 -72.5148 54° Northeast 484 557 22,300 1,217 Climbing FlightAware ADS-B (KSNC)
Wed 09:51:37 PM 41.6994 -72.4141 60° Northeast 491 565 23,100 1,217 Climbing FlightAware ADS-B (KSNC)
Wed 09:52:08 PM 41.7362 -72.3362 58° Northeast 496 571 23,700 938 Climbing FlightAware ADS-B (KSNC)
Wed 09:52:41 PM 41.7777 -72.2468 58° Northeast 506 582 24,100 667 Climbing FlightAware ADS-B (KSNC)
Wed 09:53:11 PM 41.8145 -72.1654 59° Northeast 516 594 24,400 727 Climbing FlightAware ADS-B (KSNC)
Wed 09:53:47 PM 41.8706 -72.0766 50° Northeast 525 604 24,900 1,040 Climbing FlightAware ADS-B (KSNC)
Wed 09:54:26 PM 41.9234 -71.9958 49° Northeast 526 605 25,700 1,357 Climbing FlightAware ADS-B (KSNC)
Wed 09:55:11 PM 42.0040 -71.8690 49° Northeast 525 604 26,800 1,063 Climbing FlightAware ADS-B
Wed 09:55:45 PM 42.0570 -71.7890 48° Northeast 526 605 27,100 171 Climbing FlightAware ADS-B
Wed 09:56:21 PM 42.1170 -71.7010 47° Northeast 524 603 27,000  Descending FlightAware ADS-B
Wed 09:56:58 PM 42.1770 -71.6090 49° Northeast 524 603 27,100  Climbing FlightAware ADS-B
Wed 09:57:29 PM 42.2270 -71.5330 48° Northeast 524 603 27,000  Descending FlightAware ADS-B
Wed 09:57:57 PM 42.2004 -71.5747 229° Southwest 524 603 27,100 81 Climbing FlightAware ADS-B (KBOS)
Wed 09:58:43 PM 42.3450 -71.3540 48° Northeast 524 603 27,100  Level FlightAware ADS-B
Wed 09:58:50 PM 42.3572 -71.3342 50° Northeast 525 604 27,100  Level FlightAware ADS-B (KBOS)
Wed 09:59:23 PM 42.4043 -71.2627 48° Northeast 527 606 27,100  Level FlightAware ADS-B (KBOS)
Wed 09:59:53 PM 42.4588 -71.1788 49° Northeast 527 606 27,100  Level FlightAware ADS-B (KBOS)
Wed 10:00:27 PM 42.5130 -71.0940 49° Northeast 526 605 27,100 -115 Level FlightAware ADS-B
Wed 10:00:45 PM 42.5401 -71.0523 49° Northeast 527 606 27,000 -102 Descending FlightAware ADS-B (KBOS)
Wed 10:01:26 PM 42.6073 -70.9503 48° Northeast 528 608 27,000 83 Level FlightAware ADS-B (KBOS)
Wed 10:01:57 PM 42.6575 -70.8706 49° Northeast 529 609 27,100  Climbing FlightAware ADS-B (KBOS)
Wed 10:02:28 PM 42.7062 -70.7956 49° Northeast 529 609 27,000 -98 Descending FlightAware ADS-B (KBOS)
Wed 10:02:58 PM 42.7557 -70.7180 49° Northeast 528 608 27,000 65 Level FlightAware ADS-B (KBOS)
Wed 10:04:00 PM 42.8538 -70.5649 49° Northeast 528 608 27,100 64 Climbing FlightAware ADS-B (KBOS)
Wed 10:04:32 PM 42.9060 -70.4850 48° Northeast 527 606 27,100 -133 Level FlightAware ADS-B
Wed 10:04:45 PM 42.9271 -70.4492 51° Northeast 527 606 27,000 -90 Descending FlightAware ADS-B (KBOS)
Wed 10:05:39 PM 43.0120 -70.3160 49° Northeast 525 604 27,000 66 Level FlightAware ADS-B
Wed 10:06:16 PM 43.0700 -70.2230 49° Northeast 523 602 27,100 115 Climbing FlightAware ADS-B
Wed 10:06:31 PM 43.0954 -70.1832 49° Northeast 523 602 27,100 -133 Level FlightAware ADS-B (KBOS)
Wed 10:07:01 PM 43.1423 -70.1081 49° Northeast 522 601 27,000 -73 Descending FlightAware ADS-B (KBOS)
Wed 10:07:53 PM 43.1407 -70.1106 229° Southwest 521 600 27,000  Level FlightAware ADS-B (EGUN / MHZ)
Wed 10:08:28 PM 43.2778 -69.8925 49° Northeast 521 600 27,000  Level FlightAware ADS-B (KBOS)
Wed 10:08:58 PM 43.3255 -69.8147 50° Northeast 522 601 27,000  Level FlightAware ADS-B (EGUN / MHZ)
Wed 10:09:28 PM 43.3715 -69.7413 49° Northeast 522 601 27,000 83 Level FlightAware ADS-B (EGUN / MHZ)
Wed 10:10:10 PM 43.4251 -69.6551 49° Northeast 524 603 27,100 78 Climbing FlightAware ADS-B (EGUN / MHZ)
Wed 10:10:45 PM 43.4900 -69.5486 50° Northeast 523 602 27,100  Level FlightAware ADS-B (KBOS)
Wed 10:11:22 PM 43.5505 -69.4521 49° Northeast 521 600 27,100  Level FlightAware ADS-B (EGUN / MHZ)
Wed 10:11:53 PM 43.5951 -69.3788 50° Northeast 519 597 27,100 -91 Level FlightAware ADS-B (EGUN / MHZ)
Wed 10:12:28 PM 43.6520 -69.2853 50° Northeast 516 594 27,000 -81 Descending FlightAware ADS-B (EGUN / MHZ)
Wed 10:13:07 PM 43.7130 -69.1847 50° Northeast 515 593 27,000 85 Level FlightAware ADS-B (EGUN / MHZ)
Wed 10:13:39 PM 43.7599 -69.1066 50° Northeast 513 590 27,100 88 Climbing FlightAware ADS-B (EGUN / MHZ)
Wed 10:14:15 PM 43.7790 -69.0890 34° Northeast 521 600 27,100 -120 Level FlightAware ADS-B
Wed 10:14:29 PM 43.8345 -68.9834 54° Northeast 513 590 27,000 -113 Descending FlightAware ADS-B (EGUN / MHZ)
Wed 10:15:08 PM 43.8955 -68.8825 50° Northeast 513 590 27,000 86 Level FlightAware ADS-B (EGUN / MHZ)
Wed 10:15:39 PM 43.9410 -68.8069 50° Northeast 513 590 27,100  Climbing FlightAware ADS-B (EGUN / MHZ)
Wed 10:16:31 PM 44.0224 -68.6703 50° Northeast 512 589 27,000 -69 Descending FlightAware ADS-B (EGUN / MHZ)
Wed 10:17:06 PM 44.0755 -68.5815 50° Northeast 514 592 27,000 85 Level FlightAware ADS-B (EGUN / MHZ)
Wed 10:17:42 PM 44.1290 -68.4923 50° Northeast 514 592 27,100 78 Climbing FlightAware ADS-B (EGUN / MHZ)
Wed 10:18:23 PM 44.1900 -68.3900 50° Northeast 515 593 27,100  Level FlightAware ADS-B
Wed 10:18:31 PM 44.2040 -68.3642 53° Northeast 517 595 27,100  Level FlightAware ADS-B (EGUN / MHZ)
Wed 10:19:03 PM 44.2515 -68.2845 50° Northeast 516 594 27,100  Level FlightAware ADS-B (EGUN / MHZ)
Wed 10:19:37 PM 44.3045 -68.1945 51° Northeast 517 595 27,100 -94 Level FlightAware ADS-B (EGUN / MHZ)
Wed 10:20:07 PM 44.3497 -68.1170 51° Northeast 517 595 27,000 -83 Descending FlightAware ADS-B (EGUN / MHZ)
Wed 10:20:49 PM 44.4024 -68.0265 51° Northeast 517 595 27,000  Level FlightAware ADS-B (EGUN / MHZ)
Wed 10:21:19 PM 44.4580 -67.9330 50° Northeast 516 594 27,000  Level FlightAware ADS-B
Wed 10:21:39 PM 44.4884 -67.8789 52° Northeast 517 595 27,000 103 Level FlightAware ADS-B (EGUN / MHZ)
Wed 10:22:17 PM 44.5444 -67.7824 51° Northeast 518 596 27,100  Climbing FlightAware ADS-B (EGUN / MHZ)
Wed 10:22:50 PM 44.5953 -67.6962 50° Northeast 520 598 27,000  Descending FlightAware ADS-B (EGUN / MHZ)
Wed 10:23:21 PM 44.6408 -67.6150 52° Northeast 520 598 27,100 98 Climbing FlightAware ADS-B (EGUN / MHZ)
Wed 10:23:51 PM 44.6837 -67.5414 51° Northeast 519 597 27,100  Level FlightAware ADS-B
Wed 10:24:41 PM 44.7629 -67.4021 51° Northeast 518 596 27,100 -71 Level FlightAware ADS-B (EGUN / MHZ)
Wed 10:25:16 PM 44.8148 -67.3128 51° Northeast 518 596 27,000  Descending FlightAware ADS-B (EGUN / MHZ)
Wed 10:25:46 PM 44.8607 -67.2311 52° Northeast 519 597 27,100  Climbing FlightAware ADS-B (EGUN / MHZ)
Wed 10:26:17 PM 44.9060 -67.1519 51° Northeast 519 597 27,000  Descending FlightAware ADS-B (EGUN / MHZ)
Wed 10:27:07 PM 44.9830 -67.0230 50° Northeast 519 597 27,100 71 Climbing FlightAware ADS-B
Wed 10:27:42 PM 45.0370 -66.9350 49° Northeast 519 597 27,100  Level FlightAware ADS-B
Wed 10:28:22 PM 45.1000 -66.8320 49° Northeast 520 598 27,100 -118 Level FlightAware ADS-B
Wed 10:28:33 PM 45.0489 -66.9149 229° Southwest 521 600 27,000  Descending FlightAware ADS-B (EGUN / MHZ)
Wed 10:29:14 PM 45.1774 -66.7019 49° Northeast 525 604 27,100 74 Climbing FlightAware ADS-B (EGUN / MHZ)
Wed 10:29:54 PM 45.2455 -66.5858 50° Northeast 526 605 27,100  Level FlightAware ADS-B (EGUN / MHZ)
Wed 10:30:24 PM 45.2899 -66.5118 50° Northeast 526 605 27,100  Level FlightAware ADS-B (EGUN / MHZ)
Wed 10:30:56 PM 45.3430 -66.4219 50° Northeast 527 606 27,100  Level FlightAware ADS-B (EGUN / MHZ)
Wed 10:31:26 PM 45.3888 -66.3449 50° Northeast 528 608 27,100  Level FlightAware ADS-B (EGUN / MHZ)
Wed 10:31:57 PM 45.4372 -66.2625 50° Northeast 526 605 27,100 -66 Level FlightAware ADS-B (EGUN / MHZ)
Wed 10:32:57 PM 45.5300 -66.1030 50° Northeast 525 604 27,000  Descending FlightAware ADS-B
Wed 10:33:37 PM 45.5920 -65.9970 50° Northeast 524 603 27,100 86 Climbing FlightAware ADS-B
Wed 10:34:07 PM 45.6380 -65.9170 51° Northeast 519 597 27,100  Level FlightAware ADS-B
Wed 10:34:41 PM 45.6910 -65.8260 50° Northeast 518 596 27,100  Level FlightAware ADS-B
Wed 10:35:38 PM 45.7650 -65.6980 50° Northeast 519 597 27,100  Level FlightAware ADS-B
Wed 10:36:22 PM 45.8380 -65.5720 50° Northeast 519 597 27,100  Level FlightAware ADS-B
Wed 10:36:59 PM 45.8860 -65.4870 51° Northeast 519 597 27,100 -136 Level FlightAware ADS-B
Wed 10:37:06 PM 45.9160 -65.4350 50° Northeast 525 604 27,000  Descending FlightAware ADS-B (EGUN / MHZ)
Wed 10:38:11 PM 45.9780 -65.3230 51° Northeast 519 597 27,100 59 Climbing FlightAware ADS-B
Wed 10:38:47 PM 46.0240 -65.2410 51° Northeast 519 597 27,100  Level FlightAware ADS-B
Wed 10:39:23 PM 46.0700 -65.1590 51° Northeast 519 597 27,100 -71 Level FlightAware ADS-B
Wed 10:40:12 PM 46.1833 -64.9500 51° Northeast 530 610 27,000 -55 Descending Gander Center
Wed 10:41:12 PM 46.2667 -64.7667 57° Northeast 520 598 27,000 100 Level Gander Center
Wed 10:42:12 PM 46.3667 -64.6000 49° Northeast 520 598 27,200 500 Climbing Gander Center
Wed 10:43:12 PM 46.4500 -64.4333 54° Northeast 530 610 28,000 500 Climbing Gander Center
Wed 10:44:12 PM 46.5500 -64.2667 49° Northeast 520 598 28,200 750 Climbing Gander Center
Wed 10:45:12 PM 46.6500 -64.1000 49° Northeast 520 598 29,500 1,300 Climbing Gander Center
Wed 10:46:12 PM 46.7333 -63.9333 54° Northeast 520 598 30,800 800 Climbing Gander Center
Wed 10:47:12 PM 46.8167 -63.7667 54° Northeast 520 598 31,100 100 Climbing Gander Center
Wed 10:48:12 PM 46.9000 -63.6000 54° Northeast 520 598 31,000 -50 Descending Gander Center
Wed 10:49:12 PM 46.9833 -63.4667 47° Northeast 520 598 31,000  Level Gander Center
Wed 10:50:12 PM 47.0833 -63.2667 54° Northeast 510 587 31,000  Level Gander Center
Wed 10:51:12 PM 47.1667 -63.1167 51° Northeast 500 575 31,000  Level Gander Center
Wed 10:52:12 PM 47.2500 -62.9500 54° Northeast 510 587 31,000  Level Gander Center
Wed 10:53:12 PM 47.3333 -62.7833 54° Northeast 510 587 31,000 50 Level Gander Center
Wed 10:54:12 PM 47.4167 -62.6333 51° Northeast 510 587 31,100 50 Climbing Gander Center
Wed 10:55:12 PM 47.5000 -62.4500 56° Northeast 510 587 31,100 -50 Level Gander Center
Wed 10:56:12 PM 47.5833 -62.3000 50° Northeast 510 587 31,000 -50 Descending Gander Center
Wed 10:57:12 PM 47.6833 -62.1333 48° Northeast 510 587 31,000  Level Gander Center
Wed 10:58:12 PM 47.7667 -61.9500 56° Northeast 510 587 31,000 50 Level Gander Center
Wed 10:59:12 PM 47.8500 -61.7833 53° Northeast 510 587 31,100 50 Climbing Gander Center
Wed 11:00:12 PM 47.9333 -61.6000 56° Northeast 510 587 31,100 -50 Level Gander Center
Wed 11:01:12 PM 48.0167 -61.4333 53° Northeast 520 598 31,000 -50 Descending Gander Center
Wed 11:02:12 PM 48.1000 -61.2500 56° Northeast 510 587 31,000  Level Gander Center
Wed 11:03:12 PM 48.1833 -61.1000 50° Northeast 510 587 31,000 50 Level Gander Center
Wed 11:04:12 PM 48.2667 -60.9000 58° Northeast 510 587 31,100  Climbing Gander Center
Wed 11:05:12 PM 48.3500 -60.7500 50° Northeast 510 587 31,000  Descending Gander Center
Wed 11:11:24 PM 48.8770 -59.6840 50° Northeast 31,100 14 Climbing FlightAware ADS-B
Wed 11:12:07 PM 48.9380 -59.5540 54° Northeast 514 592 31,100  Level FlightAware ADS-B
Wed 11:12:42 PM 48.9870 -59.4480 55° Northeast 513 590 31,100  Level FlightAware ADS-B
Wed 11:13:32 PM 49.0540 -59.2990 56° Northeast 514 592 31,100  Level FlightAware ADS-B
Wed 11:14:07 PM 49.1010 -59.1950 55° Northeast 514 592 31,100  Level FlightAware ADS-B
Wed 11:14:42 PM 49.1500 -59.0870 55° Northeast 515 593 31,100  Level FlightAware ADS-B
Wed 11:15:17 PM 49.1940 -58.9880 56° Northeast 516 594 31,100  Level FlightAware ADS-B
Wed 11:15:52 PM 49.2440 -58.8800 55° Northeast 516 594 31,100  Level FlightAware ADS-B
Wed 11:16:27 PM 49.2910 -58.7740 56° Northeast 517 595 31,100  Level FlightAware ADS-B
Wed 11:17:02 PM 49.3390 -58.6660 56° Northeast 518 596 31,100  Level FlightAware ADS-B
Wed 11:17:37 PM 49.3850 -58.5620 56° Northeast 519 597 31,100  Level FlightAware ADS-B
Wed 11:18:12 PM 49.4330 -58.4530 56° Northeast 520 598 31,100  Level FlightAware ADS-B
Wed 11:18:47 PM 49.4810 -58.3450 56° Northeast 521 600 31,100  Level FlightAware ADS-B
Wed 11:19:22 PM 49.5280 -58.2370 56° Northeast 524 603 31,100  Level FlightAware ADS-B
Wed 11:19:57 PM 49.5710 -58.1290 58° Northeast 529 609 31,100  Level FlightAware ADS-B
Wed 11:20:32 PM 49.6140 -58.0100 61° Northeast 530 610 31,100  Level FlightAware ADS-B
Wed 11:21:07 PM 49.6550 -57.8940 61° Northeast 531 611 31,100 -86 Level FlightAware ADS-B
Wed 11:21:42 PM 49.6960 -57.7770 62° Northeast 531 611 31,000  Descending FlightAware ADS-B
Wed 11:22:17 PM 49.7360 -57.6600 62° Northeast 530 610 31,100 86 Climbing FlightAware ADS-B
Wed 11:22:52 PM 49.7760 -57.5430 62° Northeast 531 611 31,100  Level FlightAware ADS-B
Wed 11:23:27 PM 49.8160 -57.4250 62° Northeast 531 611 31,100  Level FlightAware ADS-B
Wed 11:24:02 PM 49.8540 -57.3150 62° Northeast 531 611 31,100  Level FlightAware ADS-B
Wed 11:24:37 PM 49.8960 -57.1900 62° Northeast 530 610 31,100  Level FlightAware ADS-B
Wed 11:25:12 PM 49.9360 -57.0720 62° Northeast 530 610 31,100  Level FlightAware ADS-B
Wed 11:25:47 PM 49.9740 -56.9570 63° Northeast 530 610 31,100  Level FlightAware ADS-B
Wed 11:26:22 PM 50.0140 -56.8360 63° Northeast 530 610 31,100  Level FlightAware ADS-B
Wed 11:26:57 PM 50.0530 -56.7210 62° Northeast 530 610 31,100 -83 Level FlightAware ADS-B
Wed 11:27:34 PM 50.0930 -56.5990 63° Northeast 529 609 31,000 -85 Descending FlightAware ADS-B
Wed 11:28:08 PM 50.1310 -56.4840 63° Northeast 526 605 31,000 90 Level FlightAware ADS-B
Wed 11:28:41 PM 50.1690 -56.3660 63° Northeast 524 603 31,100 87 Climbing FlightAware ADS-B
Wed 11:29:17 PM 50.2060 -56.2510 63° Northeast 526 605 31,100  Level FlightAware ADS-B
Wed 11:29:52 PM 50.2470 -56.1290 62° Northeast 528 608 31,100  Level FlightAware ADS-B
Wed 11:30:27 PM 50.2860 -56.0070 63° Northeast 528 608 31,100  Level FlightAware ADS-B
Wed 11:31:02 PM 50.3240 -55.8870 64° Northeast 529 609 31,100  Level FlightAware ADS-B
Wed 11:31:37 PM 50.3620 -55.7700 63° Northeast 530 610 31,100  Level FlightAware ADS-B
Wed 11:32:12 PM 50.3990 -55.6500 64° Northeast 530 610 31,100  Level FlightAware ADS-B
Wed 11:32:47 PM 50.4380 -55.5270 63° Northeast 529 609 31,100  Level FlightAware ADS-B
Wed 11:33:22 PM 50.4760 -55.4060 64° Northeast 530 610 31,100  Level FlightAware ADS-B
Wed 11:33:57 PM 50.5140 -55.2850 64° Northeast 531 611 31,100  Level FlightAware ADS-B
Wed 11:34:32 PM 50.5510 -55.1680 64° Northeast 532 612 31,100 171 Level FlightAware ADS-B
Wed 11:35:07 PM 50.5900 -55.0430 64° Northeast 533 613 31,300 771 Climbing FlightAware ADS-B
Wed 11:35:42 PM 50.6280 -54.9210 64° Northeast 531 611 32,000 600 Climbing FlightAware ADS-B
Wed 11:36:27 PM 50.6760 -54.7650 64° Northeast 530 610 32,100 69 Climbing FlightAware ADS-B
Wed 11:37:09 PM 50.7160 -54.6330 64° Northeast 530 610 32,100 -69 Level FlightAware ADS-B
Wed 11:37:54 PM 50.7640 -54.4770 64° Northeast 528 608 32,000  Descending FlightAware ADS-B
Wed 11:38:32 PM 50.8050 -54.3380 65° Northeast 678 780 32,100 43 Climbing FlightAware ADS-B
Wed 11:40:12 PM 50.9040 -53.9940 65° Northeast 541 623 32,100  Level FlightAware ADS-B
Wed 11:40:47 PM 50.9290 -53.8530 74° East 544 626 32,100  Level FlightAware ADS-B
Wed 11:41:27 PM 50.9540 -53.7230 73° East 544 626 32,100  Level FlightAware ADS-B
Wed 11:42:03 PM 50.9770 -53.6060 73° East 544 626 32,100  Level FlightAware ADS-B
Wed 11:42:40 PM 51.0000 -53.4850 73° East 544 626 32,100  Level FlightAware ADS-B
Wed 11:43:17 PM 51.0230 -53.3650 73° East 544 626 32,100  Level FlightAware ADS-B
Wed 11:43:53 PM 51.0450 -53.2480 73° East 544 626 32,100  Level FlightAware ADS-B
Wed 11:44:29 PM 51.0680 -53.1310 73° East 544 626 32,100  Level FlightAware ADS-B
Wed 11:45:05 PM 51.0900 -53.0140 73° East 544 626 32,100  Level FlightAware ADS-B
Wed 11:45:41 PM 51.1130 -52.8960 73° East 544 626 32,100  Level FlightAware ADS-B
Wed 11:46:17 PM 51.1350 -52.7790 73° East 544 626 32,100  Level FlightAware ADS-B
Wed 11:46:53 PM 51.1580 -52.6610 73° East 544 626 32,100  Level FlightAware ADS-B
Wed 11:47:29 PM 51.1800 -52.5440 73° East 544 626 32,100  Level FlightAware ADS-B
Wed 11:48:05 PM 51.2030 -52.4260 73° East 544 626 32,100  Level FlightAware ADS-B
Wed 11:48:41 PM 51.2250 -52.3090 73° East 544 626 32,100  Level FlightAware ADS-B
Wed 11:49:17 PM 51.2480 -52.1910 73° East 544 626 32,100  Level FlightAware ADS-B
Wed 11:49:53 PM 51.2700 -52.0740 73° East 544 626 32,100  Level FlightAware ADS-B
Wed 11:50:29 PM 51.2930 -51.9560 73° East 544 626 32,100  Level FlightAware ADS-B
Wed 11:51:12 PM 51.5167 -51.5667 73° East 520 598 32,100 -58 Level Gander Center
Wed 11:52:12 PM 51.5667 -51.3667 68° East 520 598 32,000 -50 Descending Gander Center
Wed 11:53:12 PM 51.6333 -51.1500 64° Northeast 510 587 32,000  Level Gander Center
Wed 11:54:12 PM 51.6833 -50.9333 70° East 520 598 32,000  Level Gander Center
Wed 11:55:12 PM 51.7500 -50.7167 64° Northeast 520 598 32,000  Level Gander Center
Wed 11:56:12 PM 51.8000 -50.5167 68° East 520 598 32,000 19 Level Gander Center
Wed 11:58:00 PM 51.9171 -50.2155 58° Northeast  Level FlightAware Approximate
Thu 12:05:00 AM 52.2969 -48.7428 69° East  Level FlightAware Approximate
Thu 12:06:00 AM 52.3474 -48.5286 69° East  Level FlightAware Approximate
Thu 12:07:00 AM 52.3976 -48.3140 69° East  Level FlightAware Approximate
Thu 12:08:00 AM 52.4473 -48.0989 69° East  Level FlightAware Approximate
Thu 12:09:00 AM 52.4967 -47.8834 69° East  Level FlightAware Approximate
Thu 12:10:00 AM 52.5456 -47.6673 69° East  Level FlightAware Approximate
Thu 12:11:00 AM 52.5942 -47.4507 70° East  Level FlightAware Approximate
Thu 12:12:00 AM 52.6423 -47.2337 70° East  Level FlightAware Approximate
Thu 12:13:00 AM 52.6901 -47.0162 70° East  Level FlightAware Approximate
Thu 12:14:00 AM 52.7375 -46.7982 70° East  Level FlightAware Approximate
Thu 12:15:00 AM 52.7845 -46.5798 70° East  Level FlightAware Approximate
Thu 12:16:00 AM 52.8310 -46.3609 71° East  Level FlightAware Approximate
Thu 12:17:00 AM 52.8777 -46.1418 70° East  Level FlightAware Approximate
Thu 12:18:00 AM 52.9239 -45.9222 71° East  Level FlightAware Approximate
Thu 12:19:00 AM 52.9698 -45.7021 71° East  Level FlightAware Approximate
Thu 12:20:00 AM 53.0152 -45.4817 71° East  Level FlightAware Approximate
Thu 12:21:00 AM 53.0603 -45.2607 71° East  Level FlightAware Approximate
Thu 12:22:00 AM 53.1049 -45.0393 71° East  Level FlightAware Approximate
Thu 12:23:00 AM 53.1491 -44.8174 72° East  Level FlightAware Approximate
Thu 12:24:00 AM 53.1929 -44.5951 72° East  Level FlightAware Approximate
Thu 12:25:00 AM 53.2363 -44.3723 72° East  Level FlightAware Approximate
Thu 12:26:00 AM 53.2793 -44.1490 72° East  Level FlightAware Approximate
Thu 12:27:00 AM 53.3218 -43.9253 72° East  Level FlightAware Approximate
Thu 12:28:00 AM 53.3640 -43.7012 72° East  Level FlightAware Approximate
Thu 12:29:00 AM 53.4057 -43.4766 73° East  Level FlightAware Approximate
Thu 12:30:00 AM 53.4470 -43.2516 73° East  Level FlightAware Approximate
Thu 12:31:00 AM 53.4879 -43.0262 73° East  Level FlightAware Approximate
Thu 12:32:00 AM 53.5283 -42.8003 73° East  Level FlightAware Approximate
Thu 12:33:00 AM 53.5684 -42.5740 73° East  Level FlightAware Approximate
Thu 12:34:00 AM 53.6089 -42.3477 73° East  Level FlightAware Approximate
Thu 12:35:00 AM 53.6490 -42.1210 73° East  Level FlightAware Approximate
Thu 12:36:00 AM 53.6886 -41.8939 73° East  Level FlightAware Approximate
Thu 12:37:00 AM 53.7279 -41.6663 74° East  Level FlightAware Approximate
Thu 12:38:00 AM 53.7667 -41.4384 74° East  Level FlightAware Approximate
Thu 12:39:00 AM 53.8051 -41.2100 74° East  Level FlightAware Approximate
Thu 12:40:00 AM 53.8430 -40.9811 74° East  Level FlightAware Approximate
Thu 12:41:00 AM 53.8805 -40.7519 74° East  Level FlightAware Approximate
Thu 12:42:00 AM 53.9176 -40.5223 75° East  Level FlightAware Approximate
Thu 12:43:00 AM 53.9542 -40.2922 75° East  Level FlightAware Approximate
Thu 12:44:00 AM 53.9904 -40.0618 75° East  Level FlightAware Approximate
Thu 12:45:00 AM 54.0391 -39.8383 68° East  Level FlightAware Approximate
Thu 12:46:00 AM 54.0928 -39.6144 68° East  Level FlightAware Approximate
Thu 12:47:00 AM 54.1460 -39.3899 68° East  Level FlightAware Approximate
Thu 12:48:00 AM 54.1989 -39.1648 68° East  Level FlightAware Approximate
Thu 12:49:00 AM 54.2513 -38.9391 68° East  Level FlightAware Approximate
Thu 12:50:00 AM 54.3041 -38.7134 68° East  Level FlightAware Approximate
Thu 12:51:00 AM 54.3576 -38.4879 68° East  Level FlightAware Approximate
Thu 12:52:00 AM 54.4107 -38.2618 68° East  Level FlightAware Approximate
Thu 12:53:00 AM 54.4633 -38.0351 68° East  Level FlightAware Approximate
Thu 12:54:00 AM 54.5156 -37.8079 68° East  Level FlightAware Approximate
Thu 12:55:00 AM 54.5674 -37.5800 68° East  Level FlightAware Approximate
Thu 12:56:00 AM 54.6194 -37.3520 68° East  Level FlightAware Approximate
Thu 12:57:00 AM 54.6710 -37.1235 69° East  Level FlightAware Approximate
Thu 12:58:00 AM 54.7221 -36.8943 69° East  Level FlightAware Approximate
Thu 12:59:00 AM 54.7728 -36.6646 69° East  Level FlightAware Approximate
Thu 01:00:00 AM 54.8231 -36.4342 69° East  Level FlightAware Approximate
Thu 01:01:00 AM 54.8729 -36.2034 69° East  Level FlightAware Approximate
Thu 01:02:00 AM 54.9223 -35.9719 70° East  Level FlightAware Approximate
Thu 01:03:00 AM 54.9713 -35.7399 70° East  Level FlightAware Approximate
Thu 01:04:00 AM 55.0198 -35.5073 70° East  Level FlightAware Approximate
Thu 01:05:00 AM 55.0678 -35.2742 70° East  Level FlightAware Approximate
Thu 01:06:00 AM 55.1153 -35.0404 71° East  Level FlightAware Approximate
Thu 01:07:00 AM 55.1620 -34.8058 71° East  Level FlightAware Approximate
Thu 01:08:00 AM 55.2083 -34.5708 71° East  Level FlightAware Approximate
Thu 01:09:00 AM 55.2541 -34.3351 71° East  Level FlightAware Approximate
Thu 01:10:00 AM 55.2995 -34.0990 71° East  Level FlightAware Approximate
Thu 01:11:00 AM 55.3444 -33.8623 71° East  Level FlightAware Approximate
Thu 01:12:00 AM 55.3888 -33.6250 72° East  Level FlightAware Approximate
Thu 01:13:00 AM 55.4328 -33.3873 72° East  Level FlightAware Approximate
Thu 01:14:00 AM 55.4763 -33.1490 72° East  Level FlightAware Approximate
Thu 01:15:00 AM 55.5194 -32.9101 72° East  Level FlightAware Approximate
Thu 01:16:00 AM 55.5620 -32.6708 72° East  Level FlightAware Approximate
Thu 01:17:00 AM 55.6041 -32.4309 73° East  Level FlightAware Approximate
Thu 01:18:00 AM 55.6458 -32.1906 73° East  Level FlightAware Approximate
Thu 01:19:00 AM 55.6869 -31.9497 73° East  Level FlightAware Approximate
Thu 01:20:00 AM 55.7276 -31.7083 73° East  Level FlightAware Approximate
Thu 01:21:00 AM 55.7679 -31.4664 73° East  Level FlightAware Approximate
Thu 01:22:00 AM 55.8077 -31.2241 74° East  Level FlightAware Approximate
Thu 01:23:00 AM 55.8469 -30.9812 74° East  Level FlightAware Approximate
Thu 01:24:00 AM 55.8857 -30.7378 74° East  Level FlightAware Approximate
Thu 01:25:00 AM 55.9241 -30.4940 74° East  Level FlightAware Approximate
Thu 01:26:00 AM 55.9619 -30.2496 74° East  Level FlightAware Approximate
Thu 01:27:00 AM 55.9993 -30.0048 75° East  Level FlightAware Approximate
Thu 01:28:00 AM 56.0091 -29.7516 86° East  Level FlightAware Approximate
Thu 01:29:00 AM 56.0179 -29.4982 86° East  Level FlightAware Approximate
Thu 01:30:00 AM 56.0262 -29.2450 87° East  Level FlightAware Approximate
Thu 01:31:00 AM 56.0340 -28.9918 87° East  Level FlightAware Approximate
Thu 01:32:00 AM 56.0412 -28.7384 87° East  Level FlightAware Approximate
Thu 01:33:00 AM 56.0479 -28.4849 87° East  Level FlightAware Approximate
Thu 01:34:00 AM 56.0541 -28.2314 87° East  Level FlightAware Approximate
Thu 01:35:00 AM 56.0597 -27.9778 88° East  Level FlightAware Approximate
Thu 01:36:00 AM 56.0649 -27.7241 88° East  Level FlightAware Approximate
Thu 01:37:00 AM 56.0695 -27.4703 88° East  Level FlightAware Approximate
Thu 01:38:00 AM 56.0736 -27.2165 88° East  Level FlightAware Approximate
Thu 01:39:00 AM 56.0772 -26.9627 88° East  Level FlightAware Approximate
Thu 01:40:00 AM 56.0803 -26.7088 89° East  Level FlightAware Approximate
Thu 01:41:00 AM 56.0829 -26.4548 89° East  Level FlightAware Approximate
Thu 01:42:00 AM 56.0849 -26.2009 89° East  Level FlightAware Approximate
Thu 01:43:00 AM 56.0864 -25.9469 89° East  Level FlightAware Approximate
Thu 01:44:00 AM 56.0873 -25.6929 89° East  Level FlightAware Approximate
Thu 01:45:00 AM 56.0878 -25.4388 90° East  Level FlightAware Approximate
Thu 01:46:00 AM 56.0877 -25.1848 90° East  Level FlightAware Approximate
Thu 01:47:00 AM 56.0872 -24.9308 90° East  Level FlightAware Approximate
Thu 01:48:00 AM 56.0861 -24.6768 90° East  Level FlightAware Approximate
Thu 01:49:00 AM 56.0844 -24.4228 91° East  Level FlightAware Approximate
Thu 01:50:00 AM 56.0830 -24.1688 90° East  Level FlightAware Approximate
Thu 01:51:00 AM 56.0820 -23.9149 90° East  Level FlightAware Approximate
Thu 01:52:00 AM 56.0805 -23.6609 91° East  Level FlightAware Approximate
Thu 01:53:00 AM 56.0784 -23.4069 91° East  Level FlightAware Approximate
Thu 01:54:00 AM 56.0758 -23.1530 91° East  Level FlightAware Approximate
Thu 01:55:00 AM 56.0727 -22.8992 91° East  Level FlightAware Approximate
Thu 01:56:00 AM 56.0690 -22.6453 91° East  Level FlightAware Approximate
Thu 01:57:00 AM 56.0649 -22.3916 92° East  Level FlightAware Approximate
Thu 01:58:00 AM 56.0602 -22.1378 92° East  Level FlightAware Approximate
Thu 01:59:00 AM 56.0550 -21.8842 92° East  Level FlightAware Approximate
Thu 02:00:00 AM 56.0493 -21.6306 92° East  Level FlightAware Approximate
Thu 02:01:00 AM 56.0430 -21.3771 92° East  Level FlightAware Approximate
Thu 02:02:00 AM 56.0363 -21.1237 93° East  Level FlightAware Approximate
Thu 02:03:00 AM 56.0290 -20.8704 93° East  Level FlightAware Approximate
Thu 02:04:00 AM 56.0212 -20.6171 93° East  Level FlightAware Approximate
Thu 02:05:00 AM 56.0129 -20.3640 93° East  Level FlightAware Approximate
Thu 02:06:00 AM 56.0040 -20.1110 93° East  Level FlightAware Approximate
Thu 02:07:00 AM 55.9850 -19.8604 101° East  Level FlightAware Approximate
Thu 02:08:00 AM 55.9578 -19.6119 101° East  Level FlightAware Approximate
Thu 02:09:00 AM 55.9301 -19.3636 101° East  Level FlightAware Approximate
Thu 02:10:00 AM 55.9019 -19.1158 101° East  Level FlightAware Approximate
Thu 02:11:00 AM 55.8732 -18.8683 102° East  Level FlightAware Approximate
Thu 02:12:00 AM 55.8441 -18.6212 102° East  Level FlightAware Approximate
Thu 02:13:00 AM 55.8144 -18.3745 102° East  Level FlightAware Approximate
Thu 02:14:00 AM 55.7842 -18.1281 102° East  Level FlightAware Approximate
Thu 02:15:00 AM 55.7536 -17.8821 102° East  Level FlightAware Approximate
Thu 02:16:00 AM 55.7225 -17.6365 103° East  Level FlightAware Approximate
Thu 02:17:00 AM 55.6908 -17.3913 103° East  Level FlightAware Approximate
Thu 02:18:00 AM 55.6587 -17.1466 103° East  Level FlightAware Approximate
Thu 02:19:00 AM 55.6261 -16.9022 103° East  Level FlightAware Approximate
Thu 02:20:00 AM 55.5930 -16.6582 103° East  Level FlightAware Approximate
Thu 02:21:00 AM 55.5594 -16.4146 104° East  Level FlightAware Approximate
Thu 02:22:00 AM 55.5254 -16.1715 104° East  Level FlightAware Approximate
Thu 02:23:00 AM 55.4908 -15.9288 104° East  Level FlightAware Approximate
Thu 02:24:00 AM 55.4558 -15.6865 104° East  Level FlightAware Approximate
Thu 02:25:00 AM 55.4203 -15.4446 104° East  Level FlightAware Approximate
Thu 02:26:00 AM 55.3844 -15.2032 105° East  Level FlightAware Approximate
Thu 02:27:00 AM 55.3479 -14.9622 105° East  Level FlightAware Approximate
Thu 02:28:00 AM 55.3110 -14.7216 105° East  Level FlightAware Approximate
Thu 02:29:00 AM 55.2736 -14.4816 105° East  Level FlightAware Approximate
Thu 02:30:00 AM 55.2358 -14.2423 105° East  Level FlightAware Approximate
Thu 02:31:00 AM 55.1975 -14.0035 106° East  Level FlightAware Approximate
Thu 02:32:00 AM 55.1588 -13.7652 106° East  Level FlightAware Approximate
Thu 02:33:00 AM 55.1196 -13.5274 106° East  Level FlightAware Approximate
Thu 02:34:00 AM 55.0800 -13.2900 106° East  Level FlightAware Approximate
Thu 02:35:00 AM 55.0398 -13.0531 106° East  Level FlightAware Approximate
Thu 02:36:00 AM 54.9993 -12.8167 107° East  Level FlightAware Approximate
Thu 02:37:00 AM 54.9582 -12.5807 107° East  Level FlightAware Approximate
Thu 02:37:07 AM 55.4450 -13.1150 107° East 515 593 35,100  Level FlightAware ADS-B
Thu 02:37:48 AM 55.3970 -12.9610 119° Southeast 515 593 35,100  Level FlightAware ADS-B
Thu 02:38:22 AM 55.3560 -12.8290 119° Southeast 515 593 35,100  Level FlightAware ADS-B
Thu 02:38:57 AM 55.3150 -12.6970 119° Southeast 512 589 35,100  Level FlightAware ADS-B
Thu 02:39:32 AM 55.2760 -12.5720 119° Southeast 512 589 35,100  Level FlightAware ADS-B
Thu 02:40:13 AM 55.2300 -12.4220 118° Southeast 513 590 35,100  Level FlightAware ADS-B
Thu 02:40:52 AM 55.1840 -12.2790 119° Southeast 514 592 35,100  Level FlightAware ADS-B
Thu 02:41:22 AM 55.1480 -12.1660 119° Southeast 515 593 35,100  Level FlightAware ADS-B
Thu 02:41:57 AM 55.1080 -12.0420 119° Southeast 515 593 35,100  Level FlightAware ADS-B
Thu 02:42:37 AM 55.0600 -11.8920 119° Southeast 520 598 35,100  Level FlightAware ADS-B
Thu 02:43:07 AM 55.0310 -11.8010 119° Southeast 520 598 35,100  Level FlightAware ADS-B
Thu 02:43:47 AM 54.9780 -11.6400 120° Southeast 522 601 35,100  Level FlightAware ADS-B
Thu 02:44:17 AM 54.9430 -11.5310 119° Southeast 523 602 35,100  Level FlightAware ADS-B
Thu 02:44:52 AM 54.9000 -11.3990 119° Southeast 523 602 35,100  Level FlightAware ADS-B
Thu 02:45:27 AM 54.8590 -11.2760 120° Southeast 524 603 35,100  Level FlightAware ADS-B
Thu 02:46:07 AM 54.8100 -11.1270 120° Southeast 524 603 35,100  Level FlightAware ADS-B
Thu 02:46:37 AM 54.7740 -11.0210 120° Southeast 524 603 35,100  Level FlightAware ADS-B
Thu 02:47:12 AM 54.7310 -10.8910 120° Southeast 520 598 35,100  Level FlightAware ADS-B
Thu 02:47:47 AM 54.6890 -10.7680 121° Southeast 520 598 35,100  Level FlightAware ADS-B
Thu 02:48:22 AM 54.6450 -10.6380 120° Southeast 520 598 35,100  Level FlightAware ADS-B
Thu 02:48:57 AM 54.6030 -10.5150 120° Southeast 521 600 35,100  Level FlightAware ADS-B
Thu 02:49:37 AM 54.5530 -10.3670 120° Southeast 520 598 35,100  Level FlightAware ADS-B
Thu 02:50:07 AM 54.5170 -10.2630 121° Southeast 521 600 35,100 -92 Level FlightAware ADS-B
Thu 02:50:42 AM 54.4750 -10.1320 119° Southeast 521 600 35,000  Descending FlightAware ADS-B
Thu 02:51:17 AM 54.4470 -10.0180 113° Southeast 513 590 35,100 92 Climbing FlightAware ADS-B
Thu 02:51:47 AM 54.4588 -10.0719 291° West 518 596 35,100  Level FlightAware ADS-B
Thu 02:52:27 AM 54.3920 -9.7320 109° East 514 592 35,100  Level FlightAware ADS-B
Thu 02:52:53 AM 54.3717 -9.6237 108° East 514 592 35,100  Level FlightAware ADS-B
Thu 02:53:38 AM 54.3390 -9.4580 109° East 513 590 35,100  Level FlightAware ADS-B
Thu 02:53:55 AM 54.3251 -9.3848 108° East 514 592 35,100  Level FlightAware ADS-B
Thu 02:54:36 AM 54.2940 -9.2268 109° East 515 593 35,100  Level FlightAware ADS-B
Thu 02:55:16 AM 54.2629 -9.0730 109° East 515 593 35,100  Level FlightAware ADS-B
Thu 02:55:48 AM 54.2386 -8.9504 109° East 515 593 35,100  Level FlightAware ADS-B
Thu 02:56:18 AM 54.2151 -8.8351 109° East 516 594 35,100  Level FlightAware ADS-B
Thu 02:56:54 AM 54.1870 -8.6972 109° East 516 594 35,100  Level FlightAware ADS-B
Thu 02:57:24 AM 54.1644 -8.5861 109° East 516 594 35,100  Level FlightAware ADS-B
Thu 02:58:00 AM 54.1389 -8.4637 110° East 516 594 35,100  Level FlightAware ADS-B
Thu 02:58:48 AM 54.1140 -8.3448 110° East 517 595 35,100 -75 Level FlightAware ADS-B
Thu 02:59:20 AM 54.0709 -8.1361 110° East 500 575 35,000  Descending FlightAware UK
Thu 02:59:28 AM 54.0650 -8.1075 110° East 517 595 35,100 154 Climbing FlightAware ADS-B
Thu 02:59:59 AM 54.0398 -7.9895 110° East 516 594 35,100  Level FlightAware ADS-B
Thu 03:00:51 AM 53.9979 -7.7911 110° East 517 595 35,100  Level FlightAware ADS-B
Thu 03:01:21 AM 53.9741 -7.6808 110° East 516 594 35,100  Level FlightAware ADS-B
Thu 03:01:56 AM 53.9448 -7.5444 110° East 515 593 35,100  Level FlightAware ADS-B
Thu 03:02:30 AM 53.9172 -7.4190 110° East 516 594 35,100 -94 Level FlightAware ADS-B (EIDW / DUB)
Thu 03:03:00 AM 53.8916 -7.3017 110° East 516 594 35,000  Descending FlightAware ADS-B (EIDW / DUB)
Thu 03:03:38 AM 53.8601 -7.1582 110° East 516 594 35,100 83 Climbing FlightAware ADS-B
Thu 03:04:12 AM 53.8320 -7.0300 110° East 516 594 35,100  Level FlightAware ADS-B (EIDW / DUB)
Thu 03:04:55 AM 53.7963 -6.8718 111° Southeast 516 594 35,100 -80 Level FlightAware ADS-B (EIDW / DUB)
Thu 03:05:27 AM 53.7693 -6.7473 111° Southeast 498 573 35,000  Descending FlightAware UK
Thu 03:05:33 AM 53.7639 -6.7248 111° Southeast 517 595 35,100 146 Climbing FlightAware ADS-B
Thu 03:06:08 AM 53.7350 -6.5969 111° Southeast 517 595 35,100  Level FlightAware ADS-B
Thu 03:06:38 AM 53.7087 -6.4803 111° Southeast 517 595 35,100  Level FlightAware ADS-B
Thu 03:07:13 AM 53.6793 -6.3526 111° Southeast 518 596 35,100  Level FlightAware ADS-B
Thu 03:07:43 AM 53.6528 -6.2362 111° Southeast 518 596 35,100  Level FlightAware ADS-B
Thu 03:08:16 AM 53.6275 -6.1275 111° Southeast 520 598 35,100  Level FlightAware ADS-B (EIDW / DUB)
Thu 03:08:46 AM 53.5999 -6.0109 112° Southeast 520 598 35,100  Level FlightAware ADS-B (EIDW / DUB)
Thu 03:09:17 AM 53.5704 -5.8832 111° Southeast 520 598 35,100  Level FlightAware ADS-B
Thu 03:09:49 AM 53.5431 -5.7668 112° Southeast 519 597 35,100 -91 Level FlightAware ADS-B
Thu 03:10:23 AM 53.5149 -5.6352 110° East 507 583 35,000 -88 Descending FlightAware ADS-B
Thu 03:10:57 AM 53.5013 -5.5054 110° East 496 571 35,000 150 Level FlightAware UK
Thu 03:11:03 AM 53.5003 -5.4833 110° East 491 565 35,100 167 Climbing FlightAware ADS-B
Thu 03:11:33 AM 53.4963 -5.3703 93° East 484 557 35,100  Level FlightAware ADS-B
Thu 03:12:03 AM 53.4930 -5.2574 93° East 487 560 35,100  Level FlightAware ADS-B
Thu 03:12:12 AM 53.4980 -5.4340 273° West 487 560 35,100  Level FlightAware ADS-B (EGCW)
Thu 03:12:15 AM 53.4914 -5.2121 93° East 488 562 35,100  Level FlightAware ADS-B
Thu 03:12:49 AM 53.4863 -5.0872 94° East 491 565 35,100  Level FlightAware ADS-B
Thu 03:13:23 AM 53.4829 -5.0114 94° East 491 565 35,100  Level FlightAware ADS-B
Thu 03:13:54 AM 53.4750 -4.8405 94° East 494 568 35,100  Level FlightAware ADS-B
Thu 03:14:03 AM 53.4754 -4.8516 274° West 493 567 35,100  Level FlightAware ADS-B
Thu 03:14:31 AM 53.4696 -4.7296 95° East 494 568 35,100  Level FlightAware ADS-B
Thu 03:14:52 AM 53.4641 -4.6153 95° East 495 570 35,100  Level FlightAware ADS-B
Thu 03:15:01 AM 53.4626 -4.5845 95° East 495 570 35,100  Level FlightAware ADS-B (EGCW)
Thu 03:15:23 AM 53.4600 -4.5275 94° East 494 568 35,100  Level FlightAware ADS-B
Thu 03:15:30 AM 53.4600 -4.5275 50° Northeast 495 570 35,100  Level FlightAware ADS-B (EGCW)
Thu 03:15:41 AM 53.4566 -4.4552 94° East 494 568 35,100  Level FlightAware ADS-B
Thu 03:15:50 AM 53.4559 -4.4436 96° East 494 568 35,100  Level FlightAware ADS-B
Thu 03:15:58 AM 53.4543 -4.4094 95° East 494 568 35,100  Level FlightAware ADS-B
Thu 03:16:12 AM 53.4527 -4.3751 95° East 494 568 35,100  Level FlightAware ADS-B
Thu 03:16:22 AM 53.4497 -4.3140 95° East 494 568 35,100  Level FlightAware ADS-B
Thu 03:16:28 AM 53.4467 -4.2527 95° East 495 570 35,100  Level FlightAware ADS-B
Thu 03:17:14 AM 53.4378 -4.0739 95° East 493 567 35,100  Level FlightAware ADS-B
Thu 03:17:31 AM 53.4369 -4.0547 95° East 492 566 35,100  Level FlightAware ADS-B
Thu 03:17:40 AM 53.4347 -4.0170 96° East 495 570 35,100  Level FlightAware ADS-B
Thu 03:18:13 AM 53.4174 -3.8759 102° East 505 581 35,100  Level FlightAware ADS-B
Thu 03:18:48 AM 53.3966 -3.7242 103° East 503 579 35,100  Level FlightAware ADS-B
Thu 03:19:19 AM 53.3789 -3.5996 103° East 502 578 35,100  Level FlightAware ADS-B
Thu 03:19:32 AM 53.3757 -3.5767 103° East 502 578 35,100  Level FlightAware ADS-B
Thu 03:19:42 AM 53.3668 -3.5166 104° East 502 578 35,100  Level FlightAware ADS-B
Thu 03:20:00 AM 53.3562 -3.4452 104° East 504 580 35,100  Level FlightAware ADS-B
Thu 03:20:10 AM 53.3485 -3.4115 111° Southeast 516 594 35,100  Level FlightAware ADS-B
Thu 03:20:18 AM 53.3397 -3.3784 114° Southeast 522 601 35,100  Level FlightAware ADS-B
Thu 03:20:32 AM 53.3227 -3.3289 120° Southeast 539 620 35,100  Level FlightAware ADS-B
Thu 03:20:41 AM 53.3082 -3.2984 128° Southeast 549 632 35,100  Level FlightAware ADS-B
Thu 03:20:49 AM 53.3143 -3.3117 308° West 548 631 35,100  Level FlightAware ADS-B
Thu 03:20:59 AM 53.3012 -3.2852 130° Southeast 545 627 35,100  Level FlightAware ADS-B
Thu 03:21:05 AM 53.2652 -3.2231 134° Southeast 562 647 35,100 -194 Level FlightAware ADS-B
Thu 03:21:30 AM 53.2233 -3.1518 134° Southeast 559 643 35,000 -176 Descending FlightAware ADS-B
Thu 03:21:39 AM 53.2050 -3.1177 132° Southeast 557 641 35,000  Level FlightAware ADS-B
Thu 03:21:42 AM 53.1978 -3.1050 134° Southeast 551 634 35,000 194 Level FlightAware ADS-B
Thu 03:22:10 AM 53.1514 -3.0203 132° Southeast 555 639 35,100 200 Climbing FlightAware ADS-B
Thu 03:22:12 AM 53.1464 -3.0108 131° Southeast 550 633 35,100  Level FlightAware ADS-B
Thu 03:22:33 AM 53.1284 -2.9797 134° Southeast 550 633 35,100  Level FlightAware ADS-B
Thu 03:22:40 AM 53.0984 -2.9265 133° Southeast 557 641 35,100 -167 Level FlightAware ADS-B
Thu 03:23:09 AM 53.0498 -2.8426 134° Southeast 558 642 35,000 -188 Descending FlightAware ADS-B
Thu 03:23:12 AM 53.0425 -2.8272 128° Southeast 559 643 35,000  Level FlightAware ADS-B
Thu 03:23:44 AM 52.9862 -2.7306 134° Southeast 560 644 35,000 105 Level FlightAware ADS-B
Thu 03:24:09 AM 52.9616 -2.6870 133° Southeast 560 644 35,100 200 Climbing FlightAware ADS-B (EGDM)
Thu 03:24:14 AM 52.9311 -2.6341 134° Southeast 560 644 35,100  Level FlightAware ADS-B
Thu 03:24:40 AM 52.9377 -2.6437 319° Northwest 560 644 35,100  Level FlightAware ADS-B
Thu 03:24:49 AM 52.8703 -2.5288 134° Southeast 559 643 35,100  Level FlightAware ADS-B
Thu 03:25:13 AM 52.8265 -2.4517 133° Southeast 560 644 35,100  Level FlightAware ADS-B (EGCW)
Thu 03:25:20 AM 52.8140 -2.4303 134° Southeast 559 643 35,100 -200 Level FlightAware ADS-B
Thu 03:25:43 AM 52.7733 -2.3592 133° Southeast 560 644 35,000 -171 Descending FlightAware ADS-B (EGCW)
Thu 03:25:55 AM 52.7516 -2.3223 134° Southeast 560 644 35,000 200 Level FlightAware ADS-B
Thu 03:26:13 AM 52.7196 -2.2666 133° Southeast 562 647 35,100 194 Climbing FlightAware ADS-B (EGCW)
Thu 03:26:26 AM 52.6965 -2.2266 134° Southeast 562 647 35,100  Level FlightAware ADS-B
Thu 03:26:46 AM 52.6610 -2.1678 135° Southeast 562 647 35,100  Level FlightAware ADS-B (EGCW)
Thu 03:26:56 AM 52.6423 -2.1341 132° Southeast 562 647 35,100 -200 Level FlightAware ADS-B
Thu 03:27:16 AM 52.6078 -2.0754 134° Southeast 564 649 35,000  Descending FlightAware ADS-B (EGCW)
Thu 03:27:24 AM 52.5925 -2.0509 136° Southeast 558 642 35,100 545 Climbing FlightAware ADS-B (EGHH / BOH)
Thu 03:27:27 AM 52.5862 -2.0386 130° Southeast 564 649 35,100  Level FlightAware ADS-B
Thu 03:27:35 AM 52.5727 -2.0171 136° Southeast 558 642 35,100  Level FlightAware ADS-B
Thu 03:27:39 AM 52.5843 -2.0356 316° Northwest 558 642 35,100  Level FlightAware ADS-B
Thu 03:27:58 AM 52.5298 -1.9434 134° Southeast 564 649 35,100  Level FlightAware ADS-B
Thu 03:28:09 AM 52.5111 -1.9128 135° Southeast 558 642 35,100  Level FlightAware ADS-B
Thu 03:28:29 AM 52.4739 -1.8482 133° Southeast 564 649 35,100 -200 Level FlightAware ADS-B
Thu 03:28:39 AM 52.4558 -1.8176 134° Southeast 564 649 35,000  Descending FlightAware ADS-B
Thu 03:29:02 AM 52.4146 -1.7474 134° Southeast 564 649 35,100 200 Climbing FlightAware ADS-B
Thu 03:29:09 AM 52.4018 -1.7260 134° Southeast 564 649 35,100  Level FlightAware ADS-B
Thu 03:29:32 AM 52.3598 -1.6557 134° Southeast 565 650 35,100  Level FlightAware ADS-B
Thu 03:29:42 AM 52.3416 -1.6251 134° Southeast 566 651 35,100 -200 Level FlightAware ADS-B (EGDM)
Thu 03:30:02 AM 52.3043 -1.5639 135° Southeast 566 651 35,000  Descending FlightAware ADS-B
Thu 03:30:12 AM 52.2974 -1.5518 133° Southeast 566 651 35,100 150 Climbing FlightAware ADS-B
Thu 03:30:42 AM 52.2323 -1.4448 135° Southeast 562 647 35,100  Level FlightAware ADS-B
Thu 03:30:43 AM 52.2305 -1.4416 132° Southeast 568 654 35,100  Level FlightAware ADS-B
Thu 03:31:07 AM 52.1864 -1.3684 134° Southeast 563 648 35,100  Level FlightAware ADS-B
Thu 03:31:13 AM 52.1751 -1.3502 135° Southeast 569 655 35,100  Level FlightAware ADS-B
Thu 03:31:30 AM 52.1424 -1.2952 134° Southeast 563 648 35,100  Level FlightAware ADS-B
Thu 03:31:43 AM 52.1187 -1.2557 134° Southeast 569 655 35,100  Level FlightAware ADS-B
Thu 03:32:13 AM 52.0776 -1.1890 135° Southeast 568 654 35,100  Level FlightAware ADS-B (EGDX / DGX)
Thu 03:32:41 AM 52.0133 -1.0833 135° Southeast 560 644 35,100  Level FlightAware ADS-B (EGHH / BOH)
Thu 03:32:46 AM 52.0035 -1.0651 131° Southeast 566 651 35,100  Level FlightAware ADS-B
Thu 03:33:02 AM 51.9740 -1.0171 135° Southeast 559 643 35,100  Level FlightAware ADS-B (KCCR)
Thu 03:33:16 AM 51.9485 -0.9750 135° Southeast 563 648 35,100  Level FlightAware ADS-B
Thu 03:33:32 AM 51.9201 -0.9294 135° Southeast 557 641 35,100  Level FlightAware ADS-B (KCCR)
Thu 03:33:48 AM 51.8903 -0.8784 133° Southeast 562 647 35,100  Level FlightAware ADS-B
Thu 03:34:08 AM 51.8552 -0.8212 135° Southeast 561 646 35,100 -194 Level FlightAware ADS-B
Thu 03:34:19 AM 51.8356 -0.7883 134° Southeast 559 643 35,000  Descending FlightAware ADS-B
Thu 03:34:39 AM 51.7982 -0.7256 134° Southeast 558 642 35,100  Climbing FlightAware ADS-B
Thu 03:34:49 AM 51.7808 -0.6958 133° Southeast 559 643 35,000  Descending FlightAware ADS-B
Thu 03:35:11 AM 51.7422 -0.6334 135° Southeast 554 638 35,100 200 Climbing FlightAware ADS-B (EGHH / BOH)
Thu 03:35:19 AM 51.7262 -0.6065 134° Southeast 559 643 35,100  Level FlightAware ADS-B
Thu 03:35:41 AM 51.6874 -0.5440 135° Southeast 553 636 35,100 -194 Level FlightAware ADS-B (EGHH / BOH)
Thu 03:35:50 AM 51.6710 -0.5173 135° Southeast 559 643 35,000  Descending FlightAware ADS-B
Thu 03:36:01 AM 51.6512 -0.4850 135° Southeast 552 635 35,100 200 Climbing FlightAware ADS-B (EGHH / BOH)
Thu 03:36:20 AM 51.6167 -0.4288 135° Southeast 559 643 35,100 -200 Level FlightAware ADS-B
Thu 03:36:31 AM 51.5969 -0.3929 132° Southeast 556 640 35,000 -462 Descending FlightAware ADS-B (EGDM)
Thu 03:36:33 AM 51.5934 -0.3870 134° Southeast 554 638 35,000  Level FlightAware ADS-B
Thu 03:36:43 AM 51.5776 -0.3550 128° Southeast 540 621 35,000  Level FlightAware ADS-B
Thu 03:36:45 AM 51.5765 -0.3517 119° Southeast 538 619 35,000  Level FlightAware ADS-B (EGHH / BOH)
Thu 03:36:55 AM 51.5631 -0.3142 120° Southeast 524 603 35,000  Level FlightAware ADS-B
Thu 03:37:02 AM 51.5563 -0.2933 118° Southeast 515 593 35,000  Level FlightAware ADS-B (EGDM)
Thu 03:37:04 AM 51.5545 -0.2828 106° East 512 589 35,000  Level FlightAware ADS-B
Thu 03:37:16 AM 51.5464 -0.2400 107° East 493 567 35,000  Level FlightAware ADS-B
Thu 03:37:21 AM 51.5441 -0.2220 102° East 489 563 35,000  Level FlightAware ADS-B
Thu 03:37:34 AM 51.5407 -0.1761 97° East 480 552 35,000 240 Level FlightAware ADS-B
Thu 03:37:46 AM 51.5391 -0.1443 95° East 480 552 35,100 273 Climbing FlightAware ADS-B
Thu 03:37:56 AM 51.5363 -0.1015 96° East 484 557 35,100  Level FlightAware ADS-B (EGHH / BOH)
Thu 03:37:58 AM 51.5354 -0.0909 97° East 486 559 35,100  Level FlightAware ADS-B
Thu 03:38:17 AM 51.5278 -0.0228 100° East 497 572 35,100 -214 Level FlightAware ADS-B
Thu 03:38:26 AM 51.5250 -0.0047 104° East 500 575 35,000  Descending FlightAware ADS-B
Thu 03:38:47 AM 51.5107 0.0853 104° East 502 578 35,100 273 Climbing FlightAware ADS-B
Thu 03:38:48 AM 51.5116 0.0817 291° West 502 578 35,100 -222 Level FlightAware ADS-B (CYOW)
Thu 03:39:14 AM 51.4964 0.1753 105° East 500 575 35,000 -200 Descending FlightAware ADS-B
Thu 03:39:18 AM 51.4935 0.1969 102° East 499 574 35,000 167 Level FlightAware ADS-B
Thu 03:39:50 AM 51.4771 0.3084 103° East 500 575 35,100 162 Climbing FlightAware ADS-B
Thu 03:39:55 AM 51.4774 0.3085 North 500 575 35,100  Level FlightAware ADS-B
Thu 03:40:21 AM 51.4601 0.4241 103° East 503 579 35,100  Level FlightAware ADS-B
Thu 03:40:30 AM 51.4774 0.3085 284° West 500 575 35,100  Level FlightAware ADS-B
Thu 03:40:52 AM 51.4430 0.5363 104° East 505 581 35,100  Level FlightAware ADS-B
Thu 03:41:03 AM 51.4369 0.5732 105° East 504 580 35,100  Level FlightAware ADS-B
Thu 03:41:14 AM 51.4310 0.6126 104° East 506 582 35,100  Level FlightAware ADS-B
Thu 03:41:23 AM 51.4256 0.6452 105° East 506 582 35,100 -462 Level FlightAware ADS-B
Thu 03:41:27 AM 51.4233 0.6598 104° East 506 582 35,000  Descending FlightAware ADS-B
Thu 03:41:54 AM 51.4079 0.7578 104° East 506 582 35,100 107 Climbing FlightAware ADS-B
Thu 03:42:23 AM 51.3909 0.8669 104° East 506 582 35,100  Level FlightAware ADS-B
Thu 03:42:24 AM 51.3903 0.8703 106° East 507 583 35,100  Level FlightAware ADS-B
Thu 03:42:41 AM 51.3805 0.9323 104° East 505 581 35,100 -176 Level FlightAware ADS-B
Thu 03:42:58 AM 51.3708 0.9939 104° East 507 583 35,000 -143 Descending FlightAware ADS-B
Thu 03:43:23 AM 51.3605 1.0591 104° East 507 583 35,000 133 Level FlightAware ADS-B
Thu 03:43:43 AM 51.3448 1.1571 104° East 507 583 35,100 162 Climbing FlightAware ADS-B
Thu 03:44:00 AM 51.3348 1.2187 105° East 508 585 35,100  Level FlightAware ADS-B
Thu 03:44:03 AM 51.3331 1.2296 104° East 508 585 35,100  Level FlightAware ADS-B
Thu 03:44:39 AM 51.3122 1.3564 105° East 508 585 35,100 -90 Level FlightAware ADS-B
Thu 03:45:10 AM 51.2937 1.4726 104° East 508 585 35,000  Descending FlightAware ADS-B
Thu 03:45:41 AM 51.2752 1.5848 105° East 509 586 35,100  Climbing FlightAware ADS-B
Thu 03:46:13 AM 51.2569 1.6972 105° East 508 585 35,000  Descending FlightAware ADS-B
Thu 03:46:43 AM 51.2389 1.8056 105° East 508 585 35,100 95 Climbing FlightAware ADS-B
Thu 03:47:16 AM 51.2181 1.9282 105° East 511 588 35,100  Level FlightAware ADS-B
Thu 03:47:47 AM 51.1869 2.0355 115° Southeast 517 595 35,100 -97 Level FlightAware ADS-B
Thu 03:48:18 AM 51.1540 2.1376 117° Southeast 519 597 35,000  Descending FlightAware ADS-B
Thu 03:48:53 AM 51.1159 2.2606 116° Southeast 518 596 35,100 92 Climbing FlightAware ADS-B
Thu 03:49:23 AM 51.0849 2.3637 116° Southeast 519 597 35,100  Level FlightAware ADS-B
Thu 03:49:54 AM 51.0533 2.4704 115° Southeast 519 597 35,100 -88 Level FlightAware ADS-B
Thu 03:50:31 AM 51.0155 2.5997 115° Southeast 510 587 35,000  Descending FlightAware UK
Thu 03:50:58 AM 50.9910 2.6800 115° Southeast 519 597 35,100 95 Climbing FlightAware ADS-B
Thu 03:51:34 AM 50.9500 2.8100 117° Southeast 521 600 35,100  Level FlightAware ADS-B
Thu 03:52:11 AM 50.9090 2.9350 117° Southeast 520 598 35,100 -87 Level FlightAware ADS-B
Thu 03:52:43 AM 50.8735 3.0494 117° Southeast 506 582 35,000  Descending FlightAware UK
Thu 03:52:43 AM 50.8750 3.0440 117° Southeast 521 600 35,100 171 Climbing FlightAware ADS-B
Thu 03:53:18 AM 50.8380 3.1600 117° Southeast 521 600 35,100 -83 Level FlightAware ADS-B
Thu 03:53:55 AM 50.7949 3.2944 117° Southeast 508 585 35,000  Descending FlightAware UK
Thu 03:54:02 AM 50.7920 3.3020 117° Southeast 521 600 35,100 154 Climbing FlightAware ADS-B
Thu 03:54:34 AM 50.7540 3.4170 118° Southeast 521 600 35,100  Level FlightAware ADS-B
Thu 03:55:11 AM 50.7130 3.5450 117° Southeast 520 598 35,100  Level FlightAware ADS-B
Thu 03:55:45 AM 50.6760 3.6560 118° Southeast 521 600 35,100  Level FlightAware ADS-B
Thu 03:56:22 AM 50.6340 3.7840 117° Southeast 521 600 35,100  Level FlightAware ADS-B
Thu 03:56:54 AM 50.6000 3.8890 117° Southeast 521 600 35,100 -95 Level FlightAware ADS-B
Thu 03:57:25 AM 50.5630 4.0023 117° Southeast 508 585 35,000 -158 Descending FlightAware UK
Thu 03:57:32 AM 50.5560 4.0190 117° Southeast 522 601 35,000 154 Level FlightAware ADS-B
Thu 03:58:04 AM 50.5200 4.1270 117° Southeast 522 601 35,100  Climbing FlightAware ADS-B
Thu 03:58:07 AM 50.5156 4.1432 117° Southeast 1 1 35,000  Descending FlightAware UK
Thu 03:58:40 AM 50.4800 4.2470 118° Southeast 521 600 35,100 86 Climbing FlightAware ADS-B
Thu 03:59:17 AM 50.4390 4.3680 118° Southeast 522 601 35,100  Level FlightAware ADS-B
Thu 03:59:52 AM 50.3970 4.4910 118° Southeast 522 601 35,100 -88 Level FlightAware ADS-B
Thu 04:00:25 AM 50.3600 4.6010 118° Southeast 521 600 35,000  Descending FlightAware ADS-B
Thu 04:01:01 AM 50.3200 4.7170 118° Southeast 521 600 35,100 82 Climbing FlightAware ADS-B
Thu 04:01:38 AM 50.2790 4.8370 118° Southeast 522 601 35,100  Level FlightAware ADS-B
Thu 04:02:10 AM 50.2420 4.9460 118° Southeast 522 601 35,100  Level FlightAware ADS-B
Thu 04:02:46 AM 50.2010 5.0620 119° Southeast 522 601 35,100  Level FlightAware ADS-B
Thu 04:03:22 AM 50.1590 5.1840 118° Southeast 524 603 35,100  Level FlightAware ADS-B
Thu 04:03:51 AM 50.1250 5.2810 119° Southeast 524 603 35,100  Level FlightAware ADS-B
Thu 04:04:28 AM 50.0830 5.4000 119° Southeast 524 603 35,100  Level FlightAware ADS-B
Thu 04:05:06 AM 50.0380 5.5250 119° Southeast 524 603 35,100 -83 Level FlightAware ADS-B
Thu 04:05:40 AM 49.9980 5.6410 118° Southeast 524 603 35,000  Descending FlightAware ADS-B
Thu 04:06:17 AM 49.9560 5.7590 119° Southeast 524 603 35,100 77 Climbing FlightAware ADS-B
Thu 04:06:58 AM 49.9080 5.8930 119° Southeast 521 600 35,100  Level FlightAware ADS-B
Thu 04:07:32 AM 49.8660 6.0110 119° Southeast 521 600 35,100  Level FlightAware ADS-B
Thu 04:08:08 AM 49.8250 6.1220 120° Southeast 521 600 35,100  Level FlightAware ADS-B
Thu 04:08:50 AM 49.7760 6.2580 119° Southeast 520 598 35,100  Level FlightAware ADS-B
Thu 04:09:25 AM 49.7370 6.3650 119° Southeast 520 598 35,100  Level FlightAware ADS-B
Thu 04:09:59 AM 49.6920 6.4870 120° Southeast 518 596 35,100  Level FlightAware ADS-B
Thu 04:10:34 AM 49.6510 6.5960 120° Southeast 516 594 35,100 -83 Level FlightAware ADS-B
Thu 04:11:11 AM 49.6080 6.7140 119° Southeast 514 592 35,000  Descending FlightAware ADS-B
Thu 04:11:58 AM 49.5660 6.8280 120° Southeast 509 586 35,100 75 Climbing FlightAware ADS-B
Thu 04:12:31 AM 49.5170 6.9530 121° Southeast 509 586 35,100  Level FlightAware ADS-B
Thu 04:13:08 AM 49.4630 7.0680 126° Southeast 511 588 35,100  Level FlightAware ADS-B
Thu 04:13:42 AM 49.4140 7.1700 126° Southeast 509 586 35,100  Level FlightAware ADS-B
Thu 04:14:18 AM 49.3640 7.2710 127° Southeast 508 585 35,100 -85 Level FlightAware ADS-B
Thu 04:14:53 AM 49.3120 7.3780 127° Southeast 508 585 35,000  Descending FlightAware ADS-B
Thu 04:15:29 AM 49.2630 7.4780 127° Southeast 508 585 35,100  Climbing FlightAware ADS-B
Thu 04:16:04 AM 49.2120 7.5820 127° Southeast 511 588 35,000  Descending FlightAware ADS-B
Thu 04:16:38 AM 49.1620 7.6830 127° Southeast 513 590 35,100 83 Climbing FlightAware ADS-B
Thu 04:17:16 AM 49.1110 7.7880 127° Southeast 514 592 35,100  Level FlightAware ADS-B
Thu 04:17:48 AM 49.0630 7.8830 128° Southeast 515 593 35,100  Level FlightAware ADS-B
Thu 04:18:23 AM 49.0130 7.9840 127° Southeast 514 592 35,100  Level FlightAware ADS-B
Thu 04:19:00 AM 48.9610 8.0870 128° Southeast 511 588 35,100  Level FlightAware ADS-B
Thu 04:19:32 AM 48.9140 8.1820 127° Southeast 511 588 35,100  Level FlightAware ADS-B
Thu 04:20:15 AM 48.8520 8.3040 128° Southeast 510 587 35,100  Level FlightAware ADS-B
Thu 04:20:46 AM 48.8080 8.3920 127° Southeast 508 585 35,100  Level FlightAware ADS-B
Thu 04:21:25 AM 48.7570 8.4930 127° Southeast 507 583 35,100  Level FlightAware ADS-B
Thu 04:21:57 AM 48.7080 8.5880 128° Southeast 505 581 35,100  Level FlightAware ADS-B
Thu 04:22:34 AM 48.6540 8.6940 128° Southeast 506 582 35,100  Level FlightAware ADS-B
Thu 04:23:17 AM 48.5910 8.8170 128° Southeast 503 579 35,100  Level FlightAware ADS-B
Thu 04:23:54 AM 48.5380 8.9190 128° Southeast 503 579 35,100  Level FlightAware ADS-B
Thu 04:24:26 AM 48.4930 9.0050 128° Southeast 503 579 35,100  Level FlightAware ADS-B
Thu 04:25:02 AM 48.4420 9.1040 128° Southeast 500 575 35,100  Level FlightAware ADS-B
Thu 04:25:36 AM 48.3890 9.1950 131° Southeast 487 560 35,100  Level FlightAware ADS-B
Thu 04:26:14 AM 48.3230 9.2730 142° Southeast 483 556 35,100  Level FlightAware ADS-B
Thu 04:26:47 AM 48.2650 9.3400 142° Southeast 484 557 35,100  Level FlightAware ADS-B
Thu 04:27:22 AM 48.2060 9.4150 140° Southeast 486 559 35,100  Level FlightAware ADS-B
Thu 04:27:59 AM 48.1400 9.4910 142° Southeast 485 558 35,100  Level FlightAware ADS-B
Thu 04:28:33 AM 48.0780 9.5620 143° Southeast 487 560 35,100  Level FlightAware ADS-B
Thu 04:29:06 AM 48.0180 9.6300 143° Southeast 490 564 35,100  Level FlightAware ADS-B
Thu 04:29:43 AM 47.9520 9.7060 142° Southeast 493 567 35,100  Level FlightAware ADS-B
Thu 04:30:18 AM 47.8880 9.7790 143° Southeast 496 571 35,100  Level FlightAware ADS-B
Thu 04:30:26 AM 47.8736 9.7956 142° Southeast 490 564 35,100  Level FlightAware ADS-B (EDDM / MUC)
Thu 04:30:56 AM 47.8185 9.8580 143° Southeast 492 566 35,100  Level FlightAware ADS-B (EDDM / MUC)
Thu 04:31:28 AM 47.7620 9.9220 143° Southeast 498 573 35,100  Level FlightAware ADS-B
Thu 04:32:04 AM 47.6980 9.9950 142° Southeast 497 572 35,100  Level FlightAware ADS-B
Thu 04:32:34 AM 47.6430 10.0570 143° Southeast 496 571 35,100  Level FlightAware ADS-B
Thu 04:32:44 AM 47.6205 10.0812 144° Southeast 490 564 35,100 -125 Level FlightAware ADS-B (EDDM / MUC)
Thu 04:33:22 AM 47.5564 10.1526 143° Southeast 493 567 35,000  Descending FlightAware ADS-B (EDDM / MUC)
Thu 04:33:56 AM 47.4901 10.2279 142° Southeast 486 559 35,100  Climbing FlightAware ADS-B (EDDM / MUC)
Thu 04:34:29 AM 47.4293 10.2946 143° Southeast 486 559 35,000  Descending FlightAware ADS-B (EDDM / MUC)
Thu 04:35:00 AM 47.3748 10.3550 143° Southeast 483 556 35,100 87 Climbing FlightAware ADS-B (EDDM / MUC)
Thu 04:35:38 AM 47.3062 10.4310 143° Southeast 482 555 35,100  Level FlightAware ADS-B (EDDM / MUC)
Thu 04:36:08 AM 47.2519 10.4908 143° Southeast 483 556 35,100  Level FlightAware ADS-B (EDDM / MUC)
Thu 04:36:40 AM 47.1933 10.5548 143° Southeast 485 558 35,100  Level FlightAware ADS-B (EDDM / MUC)
Thu 04:37:24 AM 47.1130 10.6450 143° Southeast 493 567 35,100  Level FlightAware ADS-B
Thu 04:37:36 AM 47.0900 10.6690 145° Southeast 488 562 35,100  Level FlightAware ADS-B (EDDM / MUC)
Thu 04:38:06 AM 47.0349 10.7262 145° Southeast 489 563 35,100  Level FlightAware ADS-B (EDDM / MUC)
Thu 04:38:37 AM 46.9724 10.7711 154° Southeast 473 544 35,100  Level FlightAware ADS-B (EDDM / MUC)
Thu 04:39:07 AM 46.9110 10.8070 158° South 479 551 35,100  Level FlightAware ADS-B
Thu 04:39:17 AM 46.8904 10.8187 159° South 480 552 35,100  Level FlightAware ADS-B (EDDM / MUC)
Thu 04:39:47 AM 46.8350 10.8490 159° South 481 554 35,100 -158 Level FlightAware ADS-B
Thu 04:39:55 AM 46.8106 10.8631 158° South 476 548 35,000 387 Descending FlightAware ADS-B (EDDM / MUC)
Thu 04:40:18 AM 46.7667 10.9023 148° Southeast 501 577 35,300 977 Climbing FlightAware ADS-B (EDDM / MUC)
Thu 04:40:38 AM 46.7323 10.9499 137° Southeast 513 590 35,700 1,585 Climbing FlightAware ADS-B (EDDM / MUC)
Thu 04:41:11 AM 46.6813 11.0357 131° Southeast 500 575 36,700 1,217 Climbing FlightAware ADS-B (EDDM / MUC)
Thu 04:41:47 AM 46.6282 11.1263 131° Southeast 501 577 37,100 358 Climbing FlightAware ADS-B (EDDM / MUC)
Thu 04:42:18 AM 46.5808 11.2065 131° Southeast 502 578 37,100 -90 Level FlightAware ADS-B (EDDM / MUC)
Thu 04:42:54 AM 46.5253 11.3022 130° Southeast 503 579 37,000  Descending FlightAware ADS-B (EDDM / MUC)
Thu 04:43:27 AM 46.4741 11.3873 131° Southeast 502 578 37,100 95 Climbing FlightAware ADS-B (EDDM / MUC)
Thu 04:43:57 AM 46.4296 11.4618 131° Southeast 503 579 37,100  Level FlightAware ADS-B (EDDM / MUC)
Thu 04:44:36 AM 46.3684 11.5645 131° Southeast 504 580 37,100  Level FlightAware ADS-B (EDDM / MUC)
Thu 04:45:19 AM 46.3024 11.6724 131° Southeast 510 587 37,100 -74 Level FlightAware ADS-B (EDDM / MUC)
Thu 04:45:57 AM 46.2421 11.7727 131° Southeast 512 589 37,000  Descending FlightAware ADS-B (EDDM / MUC)
Thu 04:46:30 AM 46.1916 11.8575 131° Southeast 511 588 37,100 95 Climbing FlightAware ADS-B (EDDM / MUC)
Thu 04:47:00 AM 46.1443 11.9342 132° Southeast 509 586 37,100  Level FlightAware ADS-B (EDDM / MUC)
Thu 04:47:41 AM 46.0819 12.0357 132° Southeast 507 583 37,100  Level FlightAware ADS-B (EDDM / MUC)
Thu 04:48:18 AM 46.0243 12.1318 131° Southeast 507 583 37,100  Level FlightAware ADS-B (EDDM / MUC)
Thu 04:48:51 AM 45.9730 12.2150 132° Southeast 507 583 37,100  Level FlightAware ADS-B
Thu 04:48:58 AM 45.9621 12.2326 132° Southeast 507 583 37,100  Level FlightAware ADS-B (EDDM / MUC)
Thu 04:49:33 AM 45.9069 12.3207 132° Southeast 506 582 37,100  Level FlightAware ADS-B (EDDM / MUC)
Thu 04:50:13 AM 45.8466 12.4186 131° Southeast 505 581 37,100  Level FlightAware ADS-B (EDDM / MUC)
Thu 04:50:51 AM 45.7872 12.5158 131° Southeast 499 574 37,100  Level FlightAware ADS-B (EDDM / MUC)
Thu 04:51:28 AM 45.7287 12.6081 132° Southeast 505 581 37,100  Level FlightAware ADS-B (EDDM / MUC)
Thu 04:52:01 AM 45.6788 12.6878 132° Southeast 506 582 37,100  Level FlightAware ADS-B (EDDM / MUC)
Thu 04:52:32 AM 45.6305 12.7647 132° Southeast 506 582 37,100  Level FlightAware ADS-B (EDDM / MUC)
Thu 04:53:04 AM 45.5795 12.8468 132° Southeast 505 581 37,100  Level FlightAware ADS-B (EDDM / MUC)
Thu 04:54:05 AM 45.4840 12.9980 132° Southeast 507 583 37,100  Level FlightAware ADS-B
Thu 04:54:42 AM 45.4260 13.0900 132° Southeast 509 586 37,100  Level FlightAware ADS-B
Thu 04:55:15 AM 45.3740 13.1720 132° Southeast 509 586 37,100  Level FlightAware ADS-B
Thu 04:55:50 AM 45.3190 13.2590 132° Southeast 511 588 37,100  Level FlightAware ADS-B
Thu 04:56:27 AM 45.2640 13.3430 133° Southeast 511 588 37,100  Level FlightAware ADS-B
Thu 04:57:00 AM 45.2090 13.4300 132° Southeast 512 589 37,100  Level FlightAware ADS-B
Thu 04:57:36 AM 45.1510 13.5200 132° Southeast 513 590 37,100 -85 Level FlightAware ADS-B
Thu 04:58:11 AM 45.0950 13.6060 133° Southeast 514 592 37,000  Descending FlightAware ADS-B
Thu 04:58:43 AM 45.0500 13.6900 127° Southeast 518 596 37,100 87 Climbing FlightAware ADS-B
Thu 04:59:20 AM 45.0000 13.7890 126° Southeast 517 595 37,100  Level FlightAware ADS-B
Thu 04:59:57 AM 44.9440 13.8950 127° Southeast 516 594 37,100  Level FlightAware ADS-B
Thu 05:00:31 AM 44.8960 13.9870 126° Southeast 517 595 37,100  Level FlightAware ADS-B
Thu 05:01:05 AM 44.8500 14.0780 125° Southeast 518 596 37,100  Level FlightAware ADS-B
Thu 05:01:40 AM 44.8000 14.1770 125° Southeast 518 596 37,100  Level FlightAware ADS-B
Thu 05:02:14 AM 44.7520 14.2700 126° Southeast 518 596 37,100  Level FlightAware ADS-B
Thu 05:02:47 AM 44.7060 14.3600 126° Southeast 519 597 37,100  Level FlightAware ADS-B
Thu 05:03:24 AM 44.6540 14.4610 126° Southeast 520 598 37,100  Level FlightAware ADS-B
Thu 05:04:01 AM 44.6010 14.5620 126° Southeast 522 601 37,100  Level FlightAware ADS-B
Thu 05:04:37 AM 44.5500 14.6630 125° Southeast 524 603 37,100  Level FlightAware ADS-B
Thu 05:05:09 AM 44.5040 14.7480 127° Southeast 524 603 37,100  Level FlightAware ADS-B
Thu 05:05:45 AM 44.4540 14.8470 125° Southeast 525 604 37,100  Level FlightAware ADS-B
Thu 05:06:23 AM 44.4010 14.9480 126° Southeast 526 605 37,100  Level FlightAware ADS-B
Thu 05:06:58 AM 44.3480 15.0500 126° Southeast 527 606 37,100  Level FlightAware ADS-B
Thu 05:07:31 AM 44.3010 15.1380 127° Southeast 526 605 37,100  Level FlightAware ADS-B
Thu 05:08:06 AM 44.2510 15.2330 126° Southeast 525 604 37,100  Level FlightAware ADS-B
Thu 05:08:40 AM 44.2010 15.3260 127° Southeast 526 605 37,100  Level FlightAware ADS-B
Thu 05:09:13 AM 44.1550 15.4130 126° Southeast 521 600 37,100  Level FlightAware ADS-B
Thu 05:09:56 AM 44.0930 15.5300 126° Southeast 526 605 37,100  Level FlightAware ADS-B
Thu 05:10:33 AM 44.0380 15.6330 127° Southeast 526 605 37,100  Level FlightAware ADS-B
Thu 05:11:27 AM 43.9650 15.7680 127° Southeast 525 604 37,100  Level FlightAware ADS-B
Thu 05:12:02 AM 43.9080 15.8730 127° Southeast 524 603 37,100  Level FlightAware ADS-B
Thu 05:12:34 AM 43.8620 15.9590 127° Southeast 523 602 37,100  Level FlightAware ADS-B
Thu 05:13:10 AM 43.8080 16.0580 127° Southeast 522 601 37,100  Level FlightAware ADS-B
Thu 05:13:44 AM 43.7600 16.1460 127° Southeast 521 600 37,100  Level FlightAware ADS-B
Thu 05:14:20 AM 43.7070 16.2410 128° Southeast 519 597 37,100  Level FlightAware ADS-B
Thu 05:14:56 AM 43.6570 16.3340 127° Southeast 518 596 37,100  Level FlightAware ADS-B
Thu 05:15:32 AM 43.6040 16.4310 127° Southeast 516 594 37,100  Level FlightAware ADS-B
Thu 05:16:04 AM 43.5590 16.5120 127° Southeast 512 589 37,100 -88 Level FlightAware ADS-B
Thu 05:16:40 AM 43.5060 16.6070 128° Southeast 508 585 37,000  Descending FlightAware ADS-B
Thu 05:17:14 AM 43.4580 16.6950 127° Southeast 507 583 37,100 83 Climbing FlightAware ADS-B
Thu 05:17:52 AM 43.4030 16.7940 127° Southeast 505 581 37,100  Level FlightAware ADS-B
Thu 05:18:22 AM 43.3600 16.8700 128° Southeast 503 579 37,100  Level FlightAware ADS-B
Thu 05:19:00 AM 43.3080 16.9610 128° Southeast 502 578 37,100  Level FlightAware ADS-B
Thu 05:19:36 AM 43.2560 17.0570 127° Southeast 502 578 37,100  Level FlightAware ADS-B
Thu 05:20:12 AM 43.2040 17.1480 128° Southeast 502 578 37,100  Level FlightAware ADS-B
Thu 05:20:44 AM 43.1590 17.2260 128° Southeast 504 580 37,100  Level FlightAware ADS-B
Thu 05:21:22 AM 43.1050 17.3220 128° Southeast 507 583 37,100  Level FlightAware ADS-B
Thu 05:21:54 AM 43.0580 17.4060 127° Southeast 510 587 37,100  Level FlightAware ADS-B
Thu 05:22:32 AM 43.0040 17.5000 128° Southeast 511 588 37,100  Level FlightAware ADS-B
Thu 05:23:06 AM 42.9530 17.5890 128° Southeast 513 590 37,100  Level FlightAware ADS-B
Thu 05:23:39 AM 42.9060 17.6710 128° Southeast 514 592 37,100 -86 Level FlightAware ADS-B
Thu 05:24:16 AM 42.8510 17.7650 129° Southeast 514 592 37,000  Descending FlightAware ADS-B
Thu 05:24:52 AM 42.7970 17.8600 128° Southeast 515 593 37,100 86 Climbing FlightAware ADS-B
Thu 05:25:26 AM 42.7470 17.9460 128° Southeast 516 594 37,100  Level FlightAware ADS-B
Thu 05:26:00 AM 42.6990 18.0280 129° Southeast 518 596 37,100  Level FlightAware ADS-B
Thu 05:26:35 AM 42.6450 18.1200 129° Southeast 518 596 37,100  Level FlightAware ADS-B
Thu 05:27:12 AM 42.5910 18.2140 128° Southeast 519 597 37,100  Level FlightAware ADS-B
Thu 05:27:45 AM 42.5370 18.2980 131° Southeast 519 597 37,100  Level FlightAware ADS-B
Thu 05:28:22 AM 42.4770 18.3810 134° Southeast 519 597 37,100 -87 Level FlightAware ADS-B
Thu 05:28:54 AM 42.4220 18.4540 136° Southeast 521 600 37,000  Descending FlightAware ADS-B
Thu 05:29:31 AM 42.3570 18.5390 136° Southeast 521 600 37,100 83 Climbing FlightAware ADS-B
Thu 05:30:06 AM 42.3020 18.6120 136° Southeast 520 598 37,100  Level FlightAware ADS-B
Thu 05:30:42 AM 42.2360 18.7010 135° Southeast 519 597 37,100  Level FlightAware ADS-B
Thu 05:31:16 AM 42.1790 18.7790 135° Southeast 517 595 37,100  Level FlightAware ADS-B
Thu 05:31:49 AM 42.1210 18.8560 135° Southeast 515 593 37,100  Level FlightAware ADS-B
Thu 05:32:25 AM 42.0600 18.9370 135° Southeast 514 592 37,100 -83 Level FlightAware ADS-B
Thu 05:33:01 AM 42.0000 19.0180 135° Southeast 513 590 37,000  Descending FlightAware ADS-B
Thu 05:33:38 AM 41.9390 19.0990 135° Southeast 511 588 37,100  Climbing FlightAware ADS-B
Thu 05:34:08 AM 41.8890 19.1630 136° Southeast 511 588 37,000  Descending FlightAware ADS-B
Thu 05:34:45 AM 41.8260 19.2480 135° Southeast 511 588 37,100 82 Climbing FlightAware ADS-B
Thu 05:35:21 AM 41.7630 19.3260 137° Southeast 511 588 37,100  Level FlightAware ADS-B
Thu 05:35:57 AM 41.6980 19.4020 139° Southeast 509 586 37,100  Level FlightAware ADS-B
Thu 05:36:28 AM 41.6430 19.4630 140° Southeast 509 586 37,100  Level FlightAware ADS-B
Thu 05:37:03 AM 41.5830 19.5300 140° Southeast 509 586 37,100  Level FlightAware ADS-B
Thu 05:37:43 AM 41.5080 19.6150 140° Southeast 509 586 37,100 -86 Level FlightAware ADS-B
Thu 05:38:13 AM 41.4620 19.6650 141° Southeast 508 585 37,000  Descending FlightAware ADS-B
Thu 05:38:48 AM 41.3930 19.7490 138° Southeast 509 586 37,100 80 Climbing FlightAware ADS-B
Thu 05:39:28 AM 41.3270 19.8380 135° Southeast 509 586 37,100  Level FlightAware ADS-B
Thu 05:40:08 AM 41.2610 19.9250 135° Southeast 508 585 37,100  Level FlightAware ADS-B
Thu 05:40:41 AM 41.2060 20.0010 134° Southeast 508 585 37,100 -85 Level FlightAware ADS-B
Thu 05:41:19 AM 41.1420 20.0870 135° Southeast 507 583 37,000 -81 Descending FlightAware ADS-B
Thu 05:41:55 AM 41.0830 20.1640 135° Southeast 507 583 37,000 79 Level FlightAware ADS-B
Thu 05:42:35 AM 41.0160 20.2540 135° Southeast 506 582 37,100 79 Climbing FlightAware ADS-B
Thu 05:43:11 AM 40.9560 20.3330 135° Southeast 505 581 37,100  Level FlightAware ADS-B
Thu 05:43:47 AM 40.8970 20.4100 135° Southeast 505 581 37,100  Level FlightAware ADS-B
Thu 05:44:19 AM 40.8440 20.4820 134° Southeast 506 582 37,100 -88 Level FlightAware ADS-B
Thu 05:44:55 AM 40.7850 20.5590 135° Southeast 507 583 37,000  Descending FlightAware ADS-B
Thu 05:45:31 AM 40.7260 20.6380 135° Southeast 507 583 37,100 87 Climbing FlightAware ADS-B
Thu 05:46:04 AM 40.6760 20.7070 134° Southeast 508 585 37,100  Level FlightAware ADS-B
Thu 05:46:48 AM 40.6000 20.8060 135° Southeast 508 585 37,100  Level FlightAware ADS-B
Thu 05:47:23 AM 40.5410 20.8820 136° Southeast 508 585 37,100 156 Level FlightAware ADS-B
Thu 05:48:05 AM 40.4920 20.9420 137° Southeast 511 588 37,300 514 Climbing FlightAware ADS-B
Thu 05:48:33 AM 40.4400 21.0050 137° Southeast 510 587 37,700 1,059 Climbing FlightAware ADS-B
Thu 05:49:13 AM 40.3480 21.1080 140° Southeast 511 588 38,500 933 Climbing FlightAware ADS-B
Thu 05:50:03 AM 40.2580 21.2120 139° Southeast 515 593 39,100 419 Climbing FlightAware ADS-B
Thu 05:50:39 AM 40.1920 21.2860 139° Southeast 516 594 39,100  Level FlightAware ADS-B
Thu 05:51:13 AM 40.1310 21.3560 139° Southeast 517 595 39,100 -90 Level FlightAware ADS-B
Thu 05:51:46 AM 40.0740 21.4220 138° Southeast 517 595 39,000  Descending FlightAware ADS-B
Thu 05:52:23 AM 40.0070 21.4980 139° Southeast 519 597 39,100 82 Climbing FlightAware ADS-B
Thu 05:52:59 AM 39.9380 21.5760 139° Southeast 521 600 39,100  Level FlightAware ADS-B
Thu 05:53:29 AM 39.8860 21.6340 139° Southeast 523 602 39,100  Level FlightAware ADS-B
Thu 05:54:09 AM 39.8170 21.7130 139° Southeast 525 604 39,100  Level FlightAware ADS-B
Thu 05:54:48 AM 39.7380 21.8010 139° Southeast 523 602 39,100  Level FlightAware ADS-B
Thu 05:55:27 AM 39.6680 21.8790 139° Southeast 521 600 39,100  Level FlightAware ADS-B
Thu 05:56:00 AM 39.6090 21.9460 139° Southeast 518 596 39,100  Level FlightAware ADS-B
Thu 05:56:37 AM 39.5450 22.0170 139° Southeast 519 597 39,100  Level FlightAware ADS-B
Thu 05:57:09 AM 39.4840 22.0840 140° Southeast 518 596 39,100  Level FlightAware ADS-B
Thu 05:57:46 AM 39.4160 22.1610 139° Southeast 517 595 39,100  Level FlightAware ADS-B
Thu 05:58:21 AM 39.3520 22.2310 140° Southeast 517 595 39,100  Level FlightAware ADS-B
Thu 05:58:53 AM 39.2940 22.2950 139° Southeast 517 595 39,100  Level FlightAware ADS-B
Thu 05:59:32 AM 39.2230 22.3730 140° Southeast 517 595 39,100  Level FlightAware ADS-B
Thu 06:00:03 AM 39.1670 22.4350 139° Southeast 518 596 39,100  Level FlightAware ADS-B
Thu 06:00:40 AM 39.1040 22.5030 140° Southeast 517 595 39,100  Level FlightAware ADS-B
Thu 06:01:16 AM 39.0330 22.5830 139° Southeast 517 595 39,100  Level FlightAware ADS-B
Thu 06:01:51 AM 38.9690 22.6510 140° Southeast 517 595 39,100  Level FlightAware ADS-B
Thu 06:02:24 AM 38.9090 22.7160 140° Southeast 518 596 39,100  Level FlightAware ADS-B
Thu 06:03:01 AM 38.8420 22.7900 139° Southeast 520 598 39,100  Level FlightAware ADS-B
Thu 06:03:34 AM 38.7800 22.8570 140° Southeast 520 598 39,100  Level FlightAware ADS-B
Thu 06:04:08 AM 38.7200 22.9210 140° Southeast 518 596 39,100  Level FlightAware ADS-B
Thu 06:04:44 AM 38.6510 22.9960 140° Southeast 517 595 39,100  Level FlightAware ADS-B
Thu 06:05:19 AM 38.5870 23.0650 140° Southeast 516 594 39,100  Level FlightAware ADS-B
Thu 06:05:53 AM 38.5250 23.1310 140° Southeast 515 593 39,100  Level FlightAware ADS-B
Thu 06:06:30 AM 38.4580 23.2030 140° Southeast 515 593 39,100  Level FlightAware ADS-B
Thu 06:07:06 AM 38.3930 23.2720 140° Southeast 516 594 39,100  Level FlightAware ADS-B
Thu 06:07:38 AM 38.3330 23.3360 140° Southeast 516 594 39,100 -85 Level FlightAware ADS-B
Thu 06:08:17 AM 38.2610 23.4120 140° Southeast 517 595 39,000  Descending FlightAware ADS-B
Thu 06:08:48 AM 38.2050 23.4710 140° Southeast 520 598 39,100 88 Climbing FlightAware ADS-B
Thu 06:09:25 AM 38.1380 23.5430 140° Southeast 521 600 39,100  Level FlightAware ADS-B
Thu 06:10:02 AM 38.0700 23.6140 141° Southeast 521 600 39,100  Level FlightAware ADS-B
Thu 06:10:34 AM 38.0070 23.6800 140° Southeast 521 600 39,100  Level FlightAware ADS-B
Thu 06:11:09 AM 37.9430 23.7480 140° Southeast 522 601 39,100  Level FlightAware ADS-B
Thu 06:11:37 AM 37.8920 23.8050 139° Southeast 527 606 39,100 -115 Level FlightAware ADS-B
Thu 06:12:01 AM 37.8550 23.8630 129° Southeast 536 617 39,000  Descending FlightAware ADS-B
Thu 06:12:31 AM 37.8160 23.9410 122° Southeast 538 619 39,100 92 Climbing FlightAware ADS-B
Thu 06:13:06 AM 37.7710 24.0350 121° Southeast 538 619 39,100  Level FlightAware ADS-B
Thu 06:13:38 AM 37.7280 24.1200 123° Southeast 538 619 39,100  Level FlightAware ADS-B
Thu 06:14:12 AM 37.6810 24.2120 123° Southeast 538 619 39,100  Level FlightAware ADS-B
Thu 06:14:50 AM 37.6300 24.3080 124° Southeast 538 619 39,100  Level FlightAware ADS-B
Thu 06:15:22 AM 37.5850 24.3920 124° Southeast 539 620 39,100  Level FlightAware ADS-B
Thu 06:15:56 AM 37.5400 24.4830 122° Southeast 540 621 39,100  Level FlightAware ADS-B
Thu 06:16:33 AM 37.4920 24.5820 121° Southeast 538 619 39,100  Level FlightAware ADS-B
Thu 06:17:05 AM 37.4480 24.6690 122° Southeast 538 619 39,100  Level FlightAware ADS-B
Thu 06:17:42 AM 37.4010 24.7650 122° Southeast 537 618 39,100  Level FlightAware ADS-B
Thu 06:18:17 AM 37.3540 24.8570 123° Southeast 538 619 39,100  Level FlightAware ADS-B
Thu 06:18:53 AM 37.3060 24.9550 122° Southeast 538 619 39,100  Level FlightAware ADS-B
Thu 06:19:26 AM 37.2630 25.0400 122° Southeast 537 618 39,100  Level FlightAware ADS-B
Thu 06:20:03 AM 37.2140 25.1380 122° Southeast 537 618 39,100  Level FlightAware ADS-B
Thu 06:20:38 AM 37.1670 25.2320 122° Southeast 538 619 39,100  Level FlightAware ADS-B
Thu 06:21:10 AM 37.1240 25.3140 123° Southeast 538 619 39,100  Level FlightAware ADS-B
Thu 06:21:49 AM 37.0730 25.4170 122° Southeast 539 620 39,100  Level FlightAware ADS-B
Thu 06:22:22 AM 37.0280 25.5040 123° Southeast 537 618 39,100  Level FlightAware ADS-B
Thu 06:22:58 AM 36.9790 25.6000 123° Southeast 537 618 39,100  Level FlightAware ADS-B
Thu 06:23:34 AM 36.9330 25.6890 123° Southeast 536 617 39,100  Level FlightAware ADS-B
Thu 06:24:06 AM 36.8900 25.7760 122° Southeast 536 617 39,100  Level FlightAware ADS-B
Thu 06:24:40 AM 36.8440 25.8640 123° Southeast 534 615 39,100  Level FlightAware ADS-B
Thu 06:25:17 AM 36.7950 25.9600 122° Southeast 533 613 39,100  Level FlightAware ADS-B
Thu 06:25:52 AM 36.7480 26.0500 123° Southeast 532 612 39,100  Level FlightAware ADS-B
Thu 06:26:26 AM 36.7020 26.1400 122° Southeast 531 611 39,100  Level FlightAware ADS-B
Thu 06:27:02 AM 36.6540 26.2300 124° Southeast 531 611 39,100  Level FlightAware ADS-B
Thu 06:27:38 AM 36.6050 26.3250 123° Southeast 530 610 39,100  Level FlightAware ADS-B
Thu 06:28:12 AM 36.5610 26.4120 122° Southeast 529 609 39,100  Level FlightAware ADS-B
Thu 06:28:48 AM 36.5130 26.5010 124° Southeast 527 606 39,100  Level FlightAware ADS-B
Thu 06:29:24 AM 36.4650 26.5950 122° Southeast 525 604 39,100  Level FlightAware ADS-B
Thu 06:30:00 AM 36.4180 26.6830 124° Southeast 522 601 39,100  Level FlightAware ADS-B
Thu 06:30:36 AM 36.3700 26.7730 124° Southeast 522 601 39,100  Level FlightAware ADS-B
Thu 06:31:08 AM 36.3280 26.8530 123° Southeast 522 601 39,100  Level FlightAware ADS-B
Thu 06:31:44 AM 36.2800 26.9430 123° Southeast 522 601 39,100  Level FlightAware ADS-B
Thu 06:32:20 AM 36.2320 27.0350 123° Southeast 522 601 39,100  Level FlightAware ADS-B
Thu 06:33:02 AM 36.1860 27.1210 124° Southeast 522 601 39,100  Level FlightAware ADS-B
Thu 06:33:36 AM 36.1320 27.2200 124° Southeast 525 604 39,100  Level FlightAware ADS-B
Thu 06:34:12 AM 36.0830 27.3130 123° Southeast 526 605 39,100  Level FlightAware ADS-B
Thu 06:34:44 AM 36.0400 27.3930 124° Southeast 527 606 39,100  Level FlightAware ADS-B
Thu 06:35:20 AM 35.9910 27.4840 124° Southeast 528 608 39,100  Level FlightAware ADS-B
Thu 06:35:56 AM 35.9420 27.5740 124° Southeast 530 610 39,100  Level FlightAware ADS-B
Thu 06:36:32 AM 35.8920 27.6670 124° Southeast 530 610 39,100  Level FlightAware ADS-B
Thu 06:37:04 AM 35.8490 27.7480 123° Southeast 531 611 39,100  Level FlightAware ADS-B
Thu 06:37:40 AM 35.7990 27.8380 124° Southeast 530 610 39,100  Level FlightAware ADS-B
Thu 06:38:14 AM 35.7530 27.9210 124° Southeast 530 610 39,100  Level FlightAware ADS-B
Thu 06:38:50 AM 35.7040 28.0110 124° Southeast 530 610 39,100  Level FlightAware ADS-B
Thu 06:39:26 AM 35.6540 28.1040 123° Southeast 531 611 39,100  Level FlightAware ADS-B
Thu 06:40:02 AM 35.6060 28.1910 124° Southeast 533 613 39,100  Level FlightAware ADS-B
Thu 06:40:51 AM 35.5380 28.3140 124° Southeast 536 617 39,100  Level FlightAware ADS-B
Thu 06:41:26 AM 35.4880 28.4020 125° Southeast 537 618 39,100  Level FlightAware ADS-B
Thu 06:41:58 AM 35.4440 28.4830 124° Southeast 537 618 39,100  Level FlightAware ADS-B
Thu 06:42:34 AM 35.3930 28.5740 124° Southeast 539 620 39,100  Level FlightAware ADS-B
Thu 06:43:12 AM 35.3380 28.6720 125° Southeast 540 621 39,100  Level FlightAware ADS-B
Thu 06:43:43 AM 35.2960 28.7480 124° Southeast 540 621 39,100  Level FlightAware ADS-B
Thu 06:44:20 AM 35.2430 28.8410 125° Southeast 539 620 39,100  Level FlightAware ADS-B
Thu 06:44:52 AM 35.1980 28.9240 124° Southeast 538 619 39,100  Level FlightAware ADS-B
Thu 06:45:28 AM 35.1480 29.0120 125° Southeast 537 618 39,100  Level FlightAware ADS-B
Thu 06:46:04 AM 35.0970 29.1020 125° Southeast 536 617 39,100  Level FlightAware ADS-B
Thu 06:46:36 AM 35.0520 29.1810 125° Southeast 536 617 39,100  Level FlightAware ADS-B
Thu 06:47:11 AM 35.0130 29.2510 124° Southeast 537 618 39,100  Level FlightAware ADS-B
Thu 06:47:51 AM 34.9480 29.3650 125° Southeast 537 618 39,100  Level FlightAware ADS-B
Thu 06:48:22 AM 34.9040 29.4420 125° Southeast 537 618 39,100  Level FlightAware ADS-B
Thu 06:48:56 AM 34.8550 29.5270 125° Southeast 539 620 39,100  Level FlightAware ADS-B
Thu 06:49:36 AM 34.7990 29.6270 124° Southeast 539 620 39,100  Level FlightAware ADS-B
Thu 06:50:06 AM 34.7580 29.6960 126° Southeast 540 621 39,100  Level FlightAware ADS-B
Thu 06:50:42 AM 34.7090 29.7840 124° Southeast 540 621 39,100  Level FlightAware ADS-B
Thu 06:51:27 AM 34.6430 29.8950 126° Southeast 537 618 39,100  Level FlightAware ADS-B
Thu 06:52:06 AM 34.5970 29.9780 124° Southeast 537 618 39,100  Level FlightAware ADS-B
Thu 06:53:02 AM 34.5160 30.1370 122° Southeast 545 627 39,100  Level FlightAware ADS-B
Thu 06:53:43 AM 34.4610 30.2530 120° Southeast 546 628 39,100  Level FlightAware ADS-B
Thu 06:54:24 AM 34.4080 30.3640 120° Southeast 547 629 39,100  Level FlightAware ADS-B
Thu 06:54:54 AM 34.3700 30.4410 121° Southeast 547 629 39,100  Level FlightAware ADS-B
Thu 06:55:28 AM 34.3250 30.5360 120° Southeast 548 631 39,100  Level FlightAware ADS-B
Thu 06:56:05 AM 34.2920 30.6020 121° Southeast 547 629 39,100  Level FlightAware ADS-B
Thu 06:56:41 AM 34.2330 30.7230 121° Southeast 548 631 39,100  Level FlightAware ADS-B
Thu 06:57:15 AM 34.1870 30.8180 120° Southeast 547 629 39,100  Level FlightAware ADS-B
Thu 06:57:48 AM 34.1470 30.9000 120° Southeast 544 626 39,100  Level FlightAware ADS-B
Thu 06:58:23 AM 34.0990 30.9940 122° Southeast 543 625 39,100  Level FlightAware ADS-B
Thu 06:59:03 AM 34.0490 31.0960 121° Southeast 542 624 39,100  Level FlightAware ADS-B
Thu 06:59:38 AM 34.0030 31.1910 120° Southeast 542 624 39,100  Level FlightAware ADS-B
Thu 07:00:07 AM 33.9640 31.2690 121° Southeast 541 623 39,100  Level FlightAware ADS-B
Thu 07:00:43 AM 33.9210 31.3550 121° Southeast 542 624 39,100  Level FlightAware ADS-B
Thu 07:01:22 AM 33.8690 31.4620 120° Southeast 541 623 39,100  Level FlightAware ADS-B
Thu 07:01:56 AM 33.8280 31.5420 122° Southeast 544 626 39,100  Level FlightAware ADS-B
Thu 07:02:32 AM 33.7770 31.6440 121° Southeast 540 621 39,100  Level FlightAware ADS-B
Thu 07:03:08 AM 33.7300 31.7370 121° Southeast 540 621 39,100  Level FlightAware ADS-B
Thu 07:03:38 AM 33.6910 31.8170 120° Southeast 539 620 39,100 -448 Level FlightAware ADS-B
Thu 07:04:15 AM 33.6440 31.9090 122° Southeast 537 618 38,600 -1,099 Descending FlightAware ADS-B
Thu 07:04:49 AM 33.5980 31.9990 122° Southeast 539 620 37,800 -1,268 Descending FlightAware ADS-B
Thu 07:05:26 AM 33.5540 32.0840 122° Southeast 539 620 37,100 -1,286 Descending FlightAware ADS-B
Thu 07:05:59 AM 33.5100 32.1720 121° Southeast 541 623 36,300 -1,043 Descending FlightAware ADS-B
Thu 07:06:35 AM 33.4660 32.2720 118° Southeast 536 617 35,900 -575 Descending FlightAware ADS-B
Thu 07:07:12 AM 33.4410 32.3780 106° East 533 613 35,600 -529 Descending FlightAware ADS-B
Thu 07:07:43 AM 33.4230 32.4660 104° East 529 609 35,300 -522 Descending FlightAware ADS-B
Thu 07:08:21 AM 33.4010 32.5740 104° East 526 605 35,000 -1,250 Descending FlightAware ADS-B
Thu 07:08:55 AM 33.3820 32.6670 104° East 523 602 33,800 -2,466 Descending FlightAware ADS-B
Thu 07:09:34 AM 33.3610 32.7770 103° East 522 601 32,000 -2,348 Descending FlightAware ADS-B
Thu 07:10:04 AM 33.3440 32.8610 104° East 521 600 31,100 -885 Descending FlightAware ADS-B
Thu 07:10:35 AM 33.3220 32.9490 107° East 518 596 31,100  Level FlightAware ADS-B
Thu 07:11:10 AM 33.2800 33.0350 120° Southeast 516 594 31,100 -646 Level FlightAware ADS-B
Thu 07:11:40 AM 33.2340 33.1010 130° Southeast 510 587 30,400 -2,259 Descending FlightAware ADS-B
Thu 07:12:35 AM 33.1510 33.2190 130° Southeast 498 573 27,900 -2,637 Descending FlightAware ADS-B
Thu 07:13:11 AM 33.0960 33.2980 130° Southeast 482 555 26,400 -2,314 Descending FlightAware ADS-B
Thu 07:13:45 AM 33.0510 33.3620 130° Southeast 475 547 25,200 -1,167 Descending FlightAware ADS-B
Thu 07:14:23 AM 32.9980 33.4440 128° Southeast 466 536 25,000 -931 Descending FlightAware ADS-B
Thu 07:14:43 AM 32.9810 33.4880 115° Southeast 462 532 24,300 -2,250 Descending FlightAware ADS-B
Thu 07:15:03 AM 32.9710 33.5350 104° East 458 527 23,500 -1,929 Descending FlightAware ADS-B
Thu 07:15:39 AM 32.9660 33.6260 94° East 438 504 22,500 -1,583 Descending FlightAware ADS-B
Thu 07:16:15 AM 32.9630 33.7110 92° East 417 480 21,600 -1,412 Descending FlightAware ADS-B
Thu 07:16:47 AM 32.9590 33.7820 94° East 398 458 20,900 -1,235 Descending FlightAware ADS-B
Thu 07:17:23 AM 32.9550 33.8610 93° East 378 435 20,200 -1,167 Descending FlightAware ADS-B
Thu 07:17:59 AM 32.9520 33.9320 93° East 360 414 19,500 -1,315 Descending FlightAware ADS-B
Thu 07:18:36 AM 32.9460 34.0030 96° East 353 406 18,600 -1,592 Descending FlightAware ADS-B
Thu 07:18:48 AM 32.9390 34.0240 112° Southeast 350 403 18,200 -1,714 Descending FlightAware ADS-B
Thu 07:19:04 AM 32.9210 34.0470 133° Southeast 344 396 17,800 -1,714 Descending FlightAware ADS-B
Thu 07:19:16 AM 32.9050 34.0580 150° Southeast 337 388 17,400 -1,800 Descending FlightAware ADS-B
Thu 07:19:24 AM 32.8920 34.0620 166° South 331 381 17,200 -1,500 Descending FlightAware ADS-B
Thu 07:19:36 AM 32.8750 34.0630 177° South 327 376 16,900 -1,500 Descending FlightAware ADS-B
Thu 07:20:12 AM 32.8200 34.0630 180° South 319 367 16,000 -1,429 Descending FlightAware ADS-B
Thu 07:21:00 AM 32.7510 34.0630 180° South 310 357 14,900 -1,385 Descending FlightAware ADS-B
Thu 07:21:30 AM 32.7100 34.0620 181° South 305 351 14,200 -1,067 Descending FlightAware ADS-B
Thu 07:22:30 AM 32.6290 34.0600 181° South 300 345 13,300 -1,527 Descending FlightAware ADS-B
Thu 07:23:20 AM 32.5580 34.0690 174° South 296 341 11,400 -1,909 Descending FlightAware ADS-B
Thu 07:23:36 AM 32.5400 34.0850 143° Southeast 292 336 11,200 -1,125 Descending FlightAware ADS-B
Thu 07:24:08 AM 32.5100 34.1210 135° Southeast 285 328 10,500 -1,300 Descending FlightAware ADS-B
Thu 07:24:36 AM 32.4850 34.1520 134° Southeast 282 325 9,900 -1,269 Descending FlightAware ADS-B
Thu 07:25:00 AM 32.4620 34.1800 134° Southeast 280 322 9,400 -1,364 Descending FlightAware ADS-B
Thu 07:25:20 AM 32.4440 34.2020 134° Southeast 279 321 8,900 -1,200 Descending FlightAware ADS-B
Thu 07:25:40 AM 32.4260 34.2240 134° Southeast 280 322 8,600 -750 Descending FlightAware ADS-B
Thu 07:26:00 AM 32.4080 34.2460 134° Southeast 280 322 8,400 -545 Descending FlightAware ADS-B
Thu 07:26:24 AM 32.3860 34.2720 135° Southeast 278 320 8,200 -486 Descending FlightAware ADS-B
Thu 07:26:37 AM 32.3750 34.2850 135° Southeast 277 319 8,100 -667 Descending FlightAware ADS-B
Thu 07:27:00 AM 32.3550 34.3100 133° Southeast 275 316 7,800 -923 Descending FlightAware ADS-B
Thu 07:27:16 AM 32.3390 34.3280 136° Southeast 272 313 7,500 -980 Descending FlightAware ADS-B
Thu 07:27:49 AM 32.3130 34.3600 134° Southeast 269 310 7,000 -1,034 Descending FlightAware ADS-B
Thu 07:28:14 AM 32.2910 34.3870 134° Southeast 267 307 6,500 -1,200 Descending FlightAware ADS-B
Thu 07:28:34 AM 32.2750 34.4060 135° Southeast 266 306 6,100 -1,200 Descending FlightAware ADS-B
Thu 07:28:49 AM 32.2600 34.4240 135° Southeast 263 303 5,800 -1,200 Descending FlightAware ADS-B
Thu 07:29:09 AM 32.2440 34.4420 136° Southeast 261 300 5,400 -1,143 Descending FlightAware ADS-B
Thu 07:29:31 AM 32.2280 34.4650 129° Southeast 261 300 5,000 -732 Descending FlightAware ADS-B
Thu 07:29:50 AM 32.2150 34.4880 124° Southeast 264 304 4,900 -136 Descending FlightAware ADS-B
Thu 07:30:15 AM 32.2010 34.5140 122° Southeast 264 304 4,900  Level FlightAware ADS-B
Thu 07:31:30 AM 32.2150 34.4880 302° West 260 299 4,900  Level FlightAware ADS-B
Thu 07:31:54 AM 32.1360 34.6400 122° Southeast 259 298 4,900  Level FlightAware ADS-B
Thu 07:32:00 AM 32.1310 34.6500 121° Southeast 258 297 4,900  Level FlightAware ADS-B
Thu 07:32:35 AM 32.1140 34.6800 124° Southeast 258 297 4,900  Level FlightAware ADS-B
Thu 07:32:54 AM 32.1280 34.6550 303° West 259 298 4,900  Level FlightAware ADS-B
Thu 07:33:19 AM 32.1140 34.6800 123° Southeast 259 298 4,900  Level FlightAware ADS-B
Thu 07:33:50 AM 32.1280 34.6550 303° West 259 298 4,900 -130 Level FlightAware ADS-B
Thu 07:34:05 AM 32.0470 34.7900 125° Southeast 245 282 4,800 -367 Descending FlightAware ADS-B
Thu 07:34:39 AM 32.0200 34.8210 136° Southeast 224 258 4,600 -429 Descending FlightAware ADS-B
Thu 07:35:01 AM 32.0050 34.8380 136° Southeast 209 241 4,400 -857 Descending FlightAware ADS-B
Thu 07:35:14 AM 31.9950 34.8500 134° Southeast 206 237 4,100 -1,455 Descending FlightAware ADS-B
Thu 07:35:34 AM 31.9820 34.8650 136° Southeast 206 237 3,600 -1,304 Descending FlightAware ADS-B
Thu 07:36:00 AM 31.9730 34.8870 116° Southeast 206 237 3,100 -1,174 Descending FlightAware ADS-B
Thu 07:36:20 AM 31.9770 34.9120 79° East 185 213 2,700 -1,077 Descending FlightAware ADS-B
Thu 07:36:39 AM 31.9810 34.9280 74° East 178 205 2,400 -923 Descending FlightAware ADS-B
Thu 07:36:59 AM 31.9850 34.9460 75° East 176 203 2,100 -900 Descending FlightAware ADS-B
Thu 07:37:19 AM 31.9930 34.9600 56° Northeast 165 190 1,800 -923 Descending FlightAware ADS-B
Thu 07:37:25 AM 31.9990 34.9640 29° Northeast 161 185 1,700 -833 Descending FlightAware ADS-B
Thu 07:37:55 AM 32.0190 34.9600 350° North 159 183 1,300 -900 Descending FlightAware ADS-B
Thu 07:38:05 AM 32.0250 34.9530 315° West 156 180 1,100 -1,200 Descending FlightAware ADS-B
Thu 07:38:10 AM 32.0260 34.9480 283° West 156 180 1,000 -600 Descending FlightAware ADS-B
Thu 07:38:15 AM 32.0260 34.9470 270° West 156 180 1,000 -800 Level FlightAware ADS-B
Thu 07:38:40 AM 32.0230 34.9240 261° West 155 178 600 -462 Descending FlightAware ADS-B
Thu 07:39:07 AM 32.0200 34.9050 259° West 155 178 600  Level FlightAware ADS-B

Login

Don't have an account? Register now (free) for customized features, flight alerts, and more!